<?xml version="1.0" encoding="UTF-8" standalone="no" ?>
<gpx xmlns="http://www.topografix.com/GPX/1/1" xmlns:xsi="http://www.w3.org/2001/XMLSchema-instance" xsi:schemaLocation="http://www.topografix.com/GPX/1/1 http://www.topografix.com/GPX/1/1/gpx.xsd" version="1.1" creator="VisuGPX - https://www.visugpx.com">
  <metadata>
    <name>40 kms Nontron 6 mars 2K11</name>
    <desc><![CDATA[nontron - vallée du bandiat - roc poperdu - roc branlant - tour étang st estephe - retour]]></desc>
  </metadata>
  <trk>
    <name><![CDATA[ACTIVE LOG 003]]></name>
    <trkseg>
      <trkpt lat="45.53111" lon="0.66391">
        <ele>220.75988769531</ele>
        <time>2011-03-06T08:03:28Z</time>
      </trkpt>
      <trkpt lat="45.53119" lon="0.664">
        <ele>221.24060058594</ele>
        <time>2011-03-06T08:03:32Z</time>
      </trkpt>
      <trkpt lat="45.53121" lon="0.66408">
        <ele>222.20178222656</ele>
        <time>2011-03-06T08:03:34Z</time>
      </trkpt>
      <trkpt lat="45.5313" lon="0.66404">
        <ele>224.60522460938</ele>
        <time>2011-03-06T08:03:41Z</time>
      </trkpt>
      <trkpt lat="45.53134" lon="0.66394">
        <ele>223.16320800781</ele>
        <time>2011-03-06T08:03:46Z</time>
      </trkpt>
      <trkpt lat="45.53134" lon="0.66385">
        <ele>221.24060058594</ele>
        <time>2011-03-06T08:03:50Z</time>
      </trkpt>
      <trkpt lat="45.53134" lon="0.66375">
        <ele>220.27917480469</ele>
        <time>2011-03-06T08:03:53Z</time>
      </trkpt>
      <trkpt lat="45.53126" lon="0.66358">
        <ele>218.83728027344</ele>
        <time>2011-03-06T08:04:05Z</time>
      </trkpt>
      <trkpt lat="45.53123" lon="0.6636">
        <ele>223.16320800781</ele>
        <time>2011-03-06T08:05:02Z</time>
      </trkpt>
      <trkpt lat="45.53122" lon="0.66355">
        <ele>223.16320800781</ele>
        <time>2011-03-06T08:05:44Z</time>
      </trkpt>
      <trkpt lat="45.53121" lon="0.66355">
        <ele>223.16320800781</ele>
        <time>2011-03-06T08:06:29Z</time>
      </trkpt>
      <trkpt lat="45.53118" lon="0.66355">
        <ele>223.16320800781</ele>
        <time>2011-03-06T08:06:44Z</time>
      </trkpt>
      <trkpt lat="45.53117" lon="0.66355">
        <ele>223.16320800781</ele>
        <time>2011-03-06T08:06:55Z</time>
      </trkpt>
      <trkpt lat="45.5311" lon="0.66351">
        <ele>224.12451171875</ele>
        <time>2011-03-06T08:07:00Z</time>
      </trkpt>
      <trkpt lat="45.53102" lon="0.66353">
        <ele>224.60522460938</ele>
        <time>2011-03-06T08:07:04Z</time>
      </trkpt>
      <trkpt lat="45.53098" lon="0.6635">
        <ele>224.60522460938</ele>
        <time>2011-03-06T08:07:07Z</time>
      </trkpt>
      <trkpt lat="45.53092" lon="0.66356">
        <ele>224.60522460938</ele>
        <time>2011-03-06T08:07:12Z</time>
      </trkpt>
      <trkpt lat="45.53112" lon="0.66359">
        <ele>223.64379882812</ele>
        <time>2011-03-06T08:07:21Z</time>
      </trkpt>
      <trkpt lat="45.53102" lon="0.66364">
        <ele>223.16320800781</ele>
        <time>2011-03-06T08:07:28Z</time>
      </trkpt>
      <trkpt lat="45.53097" lon="0.66359">
        <ele>223.16320800781</ele>
        <time>2011-03-06T08:07:30Z</time>
      </trkpt>
      <trkpt lat="45.53085" lon="0.66353">
        <ele>223.16320800781</ele>
        <time>2011-03-06T08:07:34Z</time>
      </trkpt>
      <trkpt lat="45.53044" lon="0.66359">
        <ele>221.72119140625</ele>
        <time>2011-03-06T08:07:44Z</time>
      </trkpt>
      <trkpt lat="45.53012" lon="0.66329">
        <ele>222.68249511719</ele>
        <time>2011-03-06T08:07:58Z</time>
      </trkpt>
      <trkpt lat="45.53001" lon="0.66317">
        <ele>223.64379882812</ele>
        <time>2011-03-06T08:08:02Z</time>
      </trkpt>
      <trkpt lat="45.52984" lon="0.66306">
        <ele>223.16320800781</ele>
        <time>2011-03-06T08:08:05Z</time>
      </trkpt>
      <trkpt lat="45.5295" lon="0.66269">
        <ele>222.20178222656</ele>
        <time>2011-03-06T08:08:12Z</time>
      </trkpt>
      <trkpt lat="45.52932" lon="0.66255">
        <ele>221.24060058594</ele>
        <time>2011-03-06T08:08:15Z</time>
      </trkpt>
      <trkpt lat="45.52933" lon="0.66231">
        <ele>220.75988769531</ele>
        <time>2011-03-06T08:08:20Z</time>
      </trkpt>
      <trkpt lat="45.52943" lon="0.66218">
        <ele>219.31799316406</ele>
        <time>2011-03-06T08:08:23Z</time>
      </trkpt>
      <trkpt lat="45.52956" lon="0.66189">
        <ele>215.95324707031</ele>
        <time>2011-03-06T08:08:28Z</time>
      </trkpt>
      <trkpt lat="45.52968" lon="0.66178">
        <ele>213.0693359375</ele>
        <time>2011-03-06T08:08:35Z</time>
      </trkpt>
      <trkpt lat="45.52976" lon="0.66152">
        <ele>207.30139160156</ele>
        <time>2011-03-06T08:08:52Z</time>
      </trkpt>
      <trkpt lat="45.52978" lon="0.66144">
        <ele>205.85949707031</ele>
        <time>2011-03-06T08:08:55Z</time>
      </trkpt>
      <trkpt lat="45.52979" lon="0.66141">
        <ele>205.37878417969</ele>
        <time>2011-03-06T08:08:57Z</time>
      </trkpt>
      <trkpt lat="45.52976" lon="0.66131">
        <ele>201.53356933594</ele>
        <time>2011-03-06T08:09:10Z</time>
      </trkpt>
      <trkpt lat="45.52976" lon="0.66127">
        <ele>203.45617675781</ele>
        <time>2011-03-06T08:09:34Z</time>
      </trkpt>
      <trkpt lat="45.52952" lon="0.66113">
        <ele>204.41748046875</ele>
        <time>2011-03-06T08:10:11Z</time>
      </trkpt>
      <trkpt lat="45.5294" lon="0.6611">
        <ele>204.41748046875</ele>
        <time>2011-03-06T08:10:14Z</time>
      </trkpt>
      <trkpt lat="45.52887" lon="0.66089">
        <ele>205.85949707031</ele>
        <time>2011-03-06T08:10:27Z</time>
      </trkpt>
      <trkpt lat="45.52849" lon="0.66057">
        <ele>205.37878417969</ele>
        <time>2011-03-06T08:10:33Z</time>
      </trkpt>
      <trkpt lat="45.52828" lon="0.66061">
        <ele>205.85949707031</ele>
        <time>2011-03-06T08:10:37Z</time>
      </trkpt>
      <trkpt lat="45.52819" lon="0.66068">
        <ele>206.82067871094</ele>
        <time>2011-03-06T08:10:39Z</time>
      </trkpt>
      <trkpt lat="45.52784" lon="0.66065">
        <ele>211.62744140625</ele>
        <time>2011-03-06T08:10:45Z</time>
      </trkpt>
      <trkpt lat="45.52762" lon="0.66056">
        <ele>212.10803222656</ele>
        <time>2011-03-06T08:10:50Z</time>
      </trkpt>
      <trkpt lat="45.52755" lon="0.6605">
        <ele>206.82067871094</ele>
        <time>2011-03-06T08:10:57Z</time>
      </trkpt>
      <trkpt lat="45.52748" lon="0.66089">
        <ele>205.85949707031</ele>
        <time>2011-03-06T08:11:07Z</time>
      </trkpt>
      <trkpt lat="45.52743" lon="0.66105">
        <ele>206.34008789062</ele>
        <time>2011-03-06T08:11:13Z</time>
      </trkpt>
      <trkpt lat="45.52741" lon="0.66123">
        <ele>204.89807128906</ele>
        <time>2011-03-06T08:11:18Z</time>
      </trkpt>
      <trkpt lat="45.52745" lon="0.66126">
        <ele>203.45617675781</ele>
        <time>2011-03-06T08:11:22Z</time>
      </trkpt>
      <trkpt lat="45.52752" lon="0.66136">
        <ele>202.49487304688</ele>
        <time>2011-03-06T08:11:27Z</time>
      </trkpt>
      <trkpt lat="45.52754" lon="0.66145">
        <ele>202.01428222656</ele>
        <time>2011-03-06T08:11:32Z</time>
      </trkpt>
      <trkpt lat="45.52774" lon="0.66155">
        <ele>199.61083984375</ele>
        <time>2011-03-06T08:11:46Z</time>
      </trkpt>
      <trkpt lat="45.52774" lon="0.66161">
        <ele>197.20751953125</ele>
        <time>2011-03-06T08:12:00Z</time>
      </trkpt>
      <trkpt lat="45.52777" lon="0.66168">
        <ele>195.765625</ele>
        <time>2011-03-06T08:12:16Z</time>
      </trkpt>
      <trkpt lat="45.52778" lon="0.66169">
        <ele>194.80432128906</ele>
        <time>2011-03-06T08:12:18Z</time>
      </trkpt>
      <trkpt lat="45.52785" lon="0.66179">
        <ele>193.84301757812</ele>
        <time>2011-03-06T08:12:24Z</time>
      </trkpt>
      <trkpt lat="45.52782" lon="0.66181">
        <ele>193.84301757812</ele>
        <time>2011-03-06T08:12:27Z</time>
      </trkpt>
      <trkpt lat="45.52782" lon="0.66178">
        <ele>192.88171386719</ele>
        <time>2011-03-06T08:12:46Z</time>
      </trkpt>
      <trkpt lat="45.52767" lon="0.66165">
        <ele>191.43957519531</ele>
        <time>2011-03-06T08:13:14Z</time>
      </trkpt>
      <trkpt lat="45.52739" lon="0.66154">
        <ele>189.99768066406</ele>
        <time>2011-03-06T08:13:27Z</time>
      </trkpt>
      <trkpt lat="45.52726" lon="0.66146">
        <ele>186.63317871094</ele>
        <time>2011-03-06T08:13:30Z</time>
      </trkpt>
      <trkpt lat="45.52711" lon="0.66143">
        <ele>185.67175292969</ele>
        <time>2011-03-06T08:13:34Z</time>
      </trkpt>
      <trkpt lat="45.52691" lon="0.66129">
        <ele>183.7490234375</ele>
        <time>2011-03-06T08:13:40Z</time>
      </trkpt>
      <trkpt lat="45.52681" lon="0.66124">
        <ele>178.94262695312</ele>
        <time>2011-03-06T08:13:45Z</time>
      </trkpt>
      <trkpt lat="45.52677" lon="0.66122">
        <ele>177.98120117188</ele>
        <time>2011-03-06T08:13:47Z</time>
      </trkpt>
      <trkpt lat="45.52662" lon="0.66117">
        <ele>172.69396972656</ele>
        <time>2011-03-06T08:13:55Z</time>
      </trkpt>
      <trkpt lat="45.52639" lon="0.66127">
        <ele>165.48413085938</ele>
        <time>2011-03-06T08:14:06Z</time>
      </trkpt>
      <trkpt lat="45.52624" lon="0.66146">
        <ele>156.83215332031</ele>
        <time>2011-03-06T08:14:16Z</time>
      </trkpt>
      <trkpt lat="45.52623" lon="0.66151">
        <ele>158.27416992188</ele>
        <time>2011-03-06T08:14:17Z</time>
      </trkpt>
      <trkpt lat="45.52624" lon="0.66152">
        <ele>159.23547363281</ele>
        <time>2011-03-06T08:14:34Z</time>
      </trkpt>
      <trkpt lat="45.52646" lon="0.66157">
        <ele>160.19689941406</ele>
        <time>2011-03-06T08:15:44Z</time>
      </trkpt>
      <trkpt lat="45.52663" lon="0.66165">
        <ele>159.23547363281</ele>
        <time>2011-03-06T08:15:47Z</time>
      </trkpt>
      <trkpt lat="45.5268" lon="0.66186">
        <ele>158.27416992188</ele>
        <time>2011-03-06T08:15:51Z</time>
      </trkpt>
      <trkpt lat="45.52719" lon="0.66263">
        <ele>158.75476074219</ele>
        <time>2011-03-06T08:16:07Z</time>
      </trkpt>
      <trkpt lat="45.52724" lon="0.66292">
        <ele>161.63891601562</ele>
        <time>2011-03-06T08:16:16Z</time>
      </trkpt>
      <trkpt lat="45.52749" lon="0.66301">
        <ele>166.92602539062</ele>
        <time>2011-03-06T08:16:30Z</time>
      </trkpt>
      <trkpt lat="45.52771" lon="0.66315">
        <ele>172.69396972656</ele>
        <time>2011-03-06T08:16:45Z</time>
      </trkpt>
      <trkpt lat="45.52777" lon="0.66319">
        <ele>175.09729003906</ele>
        <time>2011-03-06T08:16:50Z</time>
      </trkpt>
      <trkpt lat="45.5278" lon="0.6632">
        <ele>176.05859375</ele>
        <time>2011-03-06T08:16:52Z</time>
      </trkpt>
      <trkpt lat="45.52785" lon="0.66323">
        <ele>177.02001953125</ele>
        <time>2011-03-06T08:17:04Z</time>
      </trkpt>
      <trkpt lat="45.52793" lon="0.66327">
        <ele>178.94262695312</ele>
        <time>2011-03-06T08:17:22Z</time>
      </trkpt>
      <trkpt lat="45.52801" lon="0.6633">
        <ele>181.82641601562</ele>
        <time>2011-03-06T08:17:38Z</time>
      </trkpt>
      <trkpt lat="45.52812" lon="0.66335">
        <ele>185.67175292969</ele>
        <time>2011-03-06T08:17:58Z</time>
      </trkpt>
      <trkpt lat="45.52817" lon="0.66343">
        <ele>189.51696777344</ele>
        <time>2011-03-06T08:18:18Z</time>
      </trkpt>
      <trkpt lat="45.52816" lon="0.66347">
        <ele>190.47839355469</ele>
        <time>2011-03-06T08:18:21Z</time>
      </trkpt>
      <trkpt lat="45.5281" lon="0.6639">
        <ele>197.68823242188</ele>
        <time>2011-03-06T08:18:39Z</time>
      </trkpt>
      <trkpt lat="45.52815" lon="0.66425">
        <ele>204.89807128906</ele>
        <time>2011-03-06T08:18:57Z</time>
      </trkpt>
      <trkpt lat="45.52818" lon="0.66442">
        <ele>205.37878417969</ele>
        <time>2011-03-06T08:19:05Z</time>
      </trkpt>
      <trkpt lat="45.52816" lon="0.66463">
        <ele>205.85949707031</ele>
        <time>2011-03-06T08:19:15Z</time>
      </trkpt>
      <trkpt lat="45.52811" lon="0.66491">
        <ele>209.22412109375</ele>
        <time>2011-03-06T08:19:28Z</time>
      </trkpt>
      <trkpt lat="45.52806" lon="0.66496">
        <ele>208.74340820312</ele>
        <time>2011-03-06T08:19:42Z</time>
      </trkpt>
      <trkpt lat="45.52805" lon="0.66496">
        <ele>208.74340820312</ele>
        <time>2011-03-06T08:21:14Z</time>
      </trkpt>
      <trkpt lat="45.52804" lon="0.66499">
        <ele>208.26281738281</ele>
        <time>2011-03-06T08:21:16Z</time>
      </trkpt>
      <trkpt lat="45.52803" lon="0.66503">
        <ele>208.74340820312</ele>
        <time>2011-03-06T08:21:18Z</time>
      </trkpt>
      <trkpt lat="45.52782" lon="0.66535">
        <ele>207.30139160156</ele>
        <time>2011-03-06T08:21:28Z</time>
      </trkpt>
      <trkpt lat="45.52739" lon="0.66601">
        <ele>203.93688964844</ele>
        <time>2011-03-06T08:21:40Z</time>
      </trkpt>
      <trkpt lat="45.52739" lon="0.66657">
        <ele>199.61083984375</ele>
        <time>2011-03-06T08:21:47Z</time>
      </trkpt>
      <trkpt lat="45.52765" lon="0.66668">
        <ele>198.1689453125</ele>
        <time>2011-03-06T08:21:52Z</time>
      </trkpt>
      <trkpt lat="45.52771" lon="0.66669">
        <ele>198.1689453125</ele>
        <time>2011-03-06T08:21:54Z</time>
      </trkpt>
      <trkpt lat="45.52798" lon="0.66679">
        <ele>195.765625</ele>
        <time>2011-03-06T08:22:03Z</time>
      </trkpt>
      <trkpt lat="45.52803" lon="0.66724">
        <ele>195.765625</ele>
        <time>2011-03-06T08:22:11Z</time>
      </trkpt>
      <trkpt lat="45.52794" lon="0.66726">
        <ele>195.765625</ele>
        <time>2011-03-06T08:22:15Z</time>
      </trkpt>
      <trkpt lat="45.52776" lon="0.66724">
        <ele>194.32373046875</ele>
        <time>2011-03-06T08:22:21Z</time>
      </trkpt>
      <trkpt lat="45.52724" lon="0.66772">
        <ele>188.07507324219</ele>
        <time>2011-03-06T08:22:28Z</time>
      </trkpt>
      <trkpt lat="45.52718" lon="0.66797">
        <ele>185.19116210938</ele>
        <time>2011-03-06T08:22:30Z</time>
      </trkpt>
      <trkpt lat="45.5267" lon="0.66991">
        <ele>173.17468261719</ele>
        <time>2011-03-06T08:22:43Z</time>
      </trkpt>
      <trkpt lat="45.52652" lon="0.67099">
        <ele>168.36804199219</ele>
        <time>2011-03-06T08:22:50Z</time>
      </trkpt>
      <trkpt lat="45.52641" lon="0.67126">
        <ele>166.92602539062</ele>
        <time>2011-03-06T08:22:55Z</time>
      </trkpt>
      <trkpt lat="45.52641" lon="0.67143">
        <ele>165.00341796875</ele>
        <time>2011-03-06T08:22:59Z</time>
      </trkpt>
      <trkpt lat="45.52642" lon="0.67158">
        <ele>164.04211425781</ele>
        <time>2011-03-06T08:23:02Z</time>
      </trkpt>
      <trkpt lat="45.52628" lon="0.67175">
        <ele>162.60009765625</ele>
        <time>2011-03-06T08:23:07Z</time>
      </trkpt>
      <trkpt lat="45.52574" lon="0.67204">
        <ele>159.23547363281</ele>
        <time>2011-03-06T08:23:23Z</time>
      </trkpt>
      <trkpt lat="45.52564" lon="0.67185">
        <ele>160.67749023438</ele>
        <time>2011-03-06T08:23:28Z</time>
      </trkpt>
      <trkpt lat="45.52545" lon="0.67148">
        <ele>164.04211425781</ele>
        <time>2011-03-06T08:23:41Z</time>
      </trkpt>
      <trkpt lat="45.52535" lon="0.6713">
        <ele>169.32946777344</ele>
        <time>2011-03-06T08:23:48Z</time>
      </trkpt>
      <trkpt lat="45.52535" lon="0.67122">
        <ele>171.73266601562</ele>
        <time>2011-03-06T08:23:51Z</time>
      </trkpt>
      <trkpt lat="45.52534" lon="0.67117">
        <ele>172.69396972656</ele>
        <time>2011-03-06T08:23:53Z</time>
      </trkpt>
      <trkpt lat="45.5252" lon="0.67074">
        <ele>174.61657714844</ele>
        <time>2011-03-06T08:24:05Z</time>
      </trkpt>
      <trkpt lat="45.52518" lon="0.67068">
        <ele>176.05859375</ele>
        <time>2011-03-06T08:24:07Z</time>
      </trkpt>
      <trkpt lat="45.52508" lon="0.67038">
        <ele>178.94262695312</ele>
        <time>2011-03-06T08:24:18Z</time>
      </trkpt>
      <trkpt lat="45.52497" lon="0.67017">
        <ele>181.82641601562</ele>
        <time>2011-03-06T08:24:28Z</time>
      </trkpt>
      <trkpt lat="45.52496" lon="0.67013">
        <ele>182.78784179688</ele>
        <time>2011-03-06T08:24:30Z</time>
      </trkpt>
      <trkpt lat="45.52484" lon="0.66987">
        <ele>186.63317871094</ele>
        <time>2011-03-06T08:24:40Z</time>
      </trkpt>
      <trkpt lat="45.52483" lon="0.66982">
        <ele>189.03637695312</ele>
        <time>2011-03-06T08:24:43Z</time>
      </trkpt>
      <trkpt lat="45.52478" lon="0.66972">
        <ele>191.43957519531</ele>
        <time>2011-03-06T08:24:49Z</time>
      </trkpt>
      <trkpt lat="45.52474" lon="0.66954">
        <ele>192.40112304688</ele>
        <time>2011-03-06T08:24:56Z</time>
      </trkpt>
      <trkpt lat="45.52479" lon="0.66923">
        <ele>195.28491210938</ele>
        <time>2011-03-06T08:25:10Z</time>
      </trkpt>
      <trkpt lat="45.52479" lon="0.66918">
        <ele>195.765625</ele>
        <time>2011-03-06T08:25:12Z</time>
      </trkpt>
      <trkpt lat="45.52477" lon="0.66894">
        <ele>199.13012695312</ele>
        <time>2011-03-06T08:25:23Z</time>
      </trkpt>
      <trkpt lat="45.52468" lon="0.66872">
        <ele>202.49487304688</ele>
        <time>2011-03-06T08:25:34Z</time>
      </trkpt>
      <trkpt lat="45.52447" lon="0.66872">
        <ele>203.45617675781</ele>
        <time>2011-03-06T08:25:47Z</time>
      </trkpt>
      <trkpt lat="45.52437" lon="0.66911">
        <ele>207.78210449219</ele>
        <time>2011-03-06T08:26:04Z</time>
      </trkpt>
      <trkpt lat="45.52424" lon="0.6693">
        <ele>209.70483398438</ele>
        <time>2011-03-06T08:26:15Z</time>
      </trkpt>
      <trkpt lat="45.52409" lon="0.66938">
        <ele>213.55004882812</ele>
        <time>2011-03-06T08:26:28Z</time>
      </trkpt>
      <trkpt lat="45.52378" lon="0.66947">
        <ele>220.75988769531</ele>
        <time>2011-03-06T08:26:52Z</time>
      </trkpt>
      <trkpt lat="45.52363" lon="0.66947">
        <ele>223.16320800781</ele>
        <time>2011-03-06T08:27:05Z</time>
      </trkpt>
      <trkpt lat="45.52344" lon="0.66936">
        <ele>224.60522460938</ele>
        <time>2011-03-06T08:27:24Z</time>
      </trkpt>
      <trkpt lat="45.52344" lon="0.66934">
        <ele>225.0859375</ele>
        <time>2011-03-06T08:27:27Z</time>
      </trkpt>
      <trkpt lat="45.52348" lon="0.66935">
        <ele>225.0859375</ele>
        <time>2011-03-06T08:27:31Z</time>
      </trkpt>
      <trkpt lat="45.52368" lon="0.6695">
        <ele>224.12451171875</ele>
        <time>2011-03-06T08:27:51Z</time>
      </trkpt>
      <trkpt lat="45.52367" lon="0.6695">
        <ele>225.0859375</ele>
        <time>2011-03-06T08:29:09Z</time>
      </trkpt>
      <trkpt lat="45.52365" lon="0.66949">
        <ele>226.52783203125</ele>
        <time>2011-03-06T08:29:11Z</time>
      </trkpt>
      <trkpt lat="45.5236" lon="0.66948">
        <ele>227.00854492188</ele>
        <time>2011-03-06T08:29:29Z</time>
      </trkpt>
      <trkpt lat="45.52359" lon="0.66948">
        <ele>226.52783203125</ele>
        <time>2011-03-06T08:30:13Z</time>
      </trkpt>
      <trkpt lat="45.52323" lon="0.66937">
        <ele>227.00854492188</ele>
        <time>2011-03-06T08:30:31Z</time>
      </trkpt>
      <trkpt lat="45.5231" lon="0.66973">
        <ele>228.93115234375</ele>
        <time>2011-03-06T08:30:44Z</time>
      </trkpt>
      <trkpt lat="45.52297" lon="0.67038">
        <ele>229.89233398438</ele>
        <time>2011-03-06T08:31:03Z</time>
      </trkpt>
      <trkpt lat="45.5228" lon="0.67079">
        <ele>230.373046875</ele>
        <time>2011-03-06T08:31:16Z</time>
      </trkpt>
      <trkpt lat="45.52244" lon="0.67071">
        <ele>227.00854492188</ele>
        <time>2011-03-06T08:31:27Z</time>
      </trkpt>
      <trkpt lat="45.52233" lon="0.67067">
        <ele>227.00854492188</ele>
        <time>2011-03-06T08:31:29Z</time>
      </trkpt>
      <trkpt lat="45.52214" lon="0.67056">
        <ele>226.04711914062</ele>
        <time>2011-03-06T08:31:32Z</time>
      </trkpt>
      <trkpt lat="45.52194" lon="0.67041">
        <ele>224.12451171875</ele>
        <time>2011-03-06T08:31:35Z</time>
      </trkpt>
      <trkpt lat="45.52147" lon="0.6702">
        <ele>217.8759765625</ele>
        <time>2011-03-06T08:31:41Z</time>
      </trkpt>
      <trkpt lat="45.52127" lon="0.67032">
        <ele>215.47265625</ele>
        <time>2011-03-06T08:31:46Z</time>
      </trkpt>
      <trkpt lat="45.5213" lon="0.67082">
        <ele>215.95324707031</ele>
        <time>2011-03-06T08:31:55Z</time>
      </trkpt>
      <trkpt lat="45.5213" lon="0.67093">
        <ele>216.91467285156</ele>
        <time>2011-03-06T08:31:57Z</time>
      </trkpt>
      <trkpt lat="45.52099" lon="0.67209">
        <ele>220.27917480469</ele>
        <time>2011-03-06T08:32:14Z</time>
      </trkpt>
      <trkpt lat="45.52097" lon="0.67268">
        <ele>222.68249511719</ele>
        <time>2011-03-06T08:32:25Z</time>
      </trkpt>
      <trkpt lat="45.52118" lon="0.673">
        <ele>226.52783203125</ele>
        <time>2011-03-06T08:32:35Z</time>
      </trkpt>
      <trkpt lat="45.52123" lon="0.67314">
        <ele>228.93115234375</ele>
        <time>2011-03-06T08:32:40Z</time>
      </trkpt>
      <trkpt lat="45.52121" lon="0.67319">
        <ele>229.89233398438</ele>
        <time>2011-03-06T08:32:42Z</time>
      </trkpt>
      <trkpt lat="45.52113" lon="0.67361">
        <ele>229.41174316406</ele>
        <time>2011-03-06T08:32:52Z</time>
      </trkpt>
      <trkpt lat="45.52089" lon="0.67447">
        <ele>232.77648925781</ele>
        <time>2011-03-06T08:33:12Z</time>
      </trkpt>
      <trkpt lat="45.52066" lon="0.67521">
        <ele>233.25708007812</ele>
        <time>2011-03-06T08:33:29Z</time>
      </trkpt>
      <trkpt lat="45.5205" lon="0.67593">
        <ele>235.66027832031</ele>
        <time>2011-03-06T08:33:45Z</time>
      </trkpt>
      <trkpt lat="45.52051" lon="0.67667">
        <ele>236.62170410156</ele>
        <time>2011-03-06T08:34:00Z</time>
      </trkpt>
      <trkpt lat="45.52071" lon="0.67744">
        <ele>234.69909667969</ele>
        <time>2011-03-06T08:34:14Z</time>
      </trkpt>
      <trkpt lat="45.52078" lon="0.67761">
        <ele>233.25708007812</ele>
        <time>2011-03-06T08:34:17Z</time>
      </trkpt>
      <trkpt lat="45.52088" lon="0.67782">
        <ele>232.29577636719</ele>
        <time>2011-03-06T08:34:20Z</time>
      </trkpt>
      <trkpt lat="45.52088" lon="0.67816">
        <ele>232.77648925781</ele>
        <time>2011-03-06T08:34:25Z</time>
      </trkpt>
      <trkpt lat="45.52055" lon="0.67867">
        <ele>237.10229492188</ele>
        <time>2011-03-06T08:34:40Z</time>
      </trkpt>
      <trkpt lat="45.52021" lon="0.67921">
        <ele>239.98620605469</ele>
        <time>2011-03-06T08:34:55Z</time>
      </trkpt>
      <trkpt lat="45.51987" lon="0.67975">
        <ele>239.98620605469</ele>
        <time>2011-03-06T08:35:10Z</time>
      </trkpt>
      <trkpt lat="45.51958" lon="0.68032">
        <ele>244.79284667969</ele>
        <time>2011-03-06T08:35:24Z</time>
      </trkpt>
      <trkpt lat="45.51934" lon="0.68093">
        <ele>247.19604492188</ele>
        <time>2011-03-06T08:35:39Z</time>
      </trkpt>
      <trkpt lat="45.51906" lon="0.68155">
        <ele>247.19604492188</ele>
        <time>2011-03-06T08:35:54Z</time>
      </trkpt>
      <trkpt lat="45.51879" lon="0.68214">
        <ele>252.00280761719</ele>
        <time>2011-03-06T08:36:07Z</time>
      </trkpt>
      <trkpt lat="45.51863" lon="0.68281">
        <ele>253.44470214844</ele>
        <time>2011-03-06T08:36:20Z</time>
      </trkpt>
      <trkpt lat="45.5185" lon="0.68344">
        <ele>256.80932617188</ele>
        <time>2011-03-06T08:36:32Z</time>
      </trkpt>
      <trkpt lat="45.51839" lon="0.68402">
        <ele>259.693359375</ele>
        <time>2011-03-06T08:36:44Z</time>
      </trkpt>
      <trkpt lat="45.51824" lon="0.68468">
        <ele>264.49987792969</ele>
        <time>2011-03-06T08:36:57Z</time>
      </trkpt>
      <trkpt lat="45.51814" lon="0.6856">
        <ele>270.26770019531</ele>
        <time>2011-03-06T08:37:14Z</time>
      </trkpt>
      <trkpt lat="45.51814" lon="0.68628">
        <ele>271.22912597656</ele>
        <time>2011-03-06T08:37:31Z</time>
      </trkpt>
      <trkpt lat="45.51818" lon="0.68701">
        <ele>268.34509277344</ele>
        <time>2011-03-06T08:37:49Z</time>
      </trkpt>
      <trkpt lat="45.51821" lon="0.68781">
        <ele>268.82580566406</ele>
        <time>2011-03-06T08:38:07Z</time>
      </trkpt>
      <trkpt lat="45.51829" lon="0.68862">
        <ele>267.38391113281</ele>
        <time>2011-03-06T08:38:25Z</time>
      </trkpt>
      <trkpt lat="45.51839" lon="0.68975">
        <ele>265.94189453125</ele>
        <time>2011-03-06T08:38:44Z</time>
      </trkpt>
      <trkpt lat="45.51826" lon="0.69087">
        <ele>264.98059082031</ele>
        <time>2011-03-06T08:39:00Z</time>
      </trkpt>
      <trkpt lat="45.51795" lon="0.69151">
        <ele>264.98059082031</ele>
        <time>2011-03-06T08:39:13Z</time>
      </trkpt>
      <trkpt lat="45.51788" lon="0.69167">
        <ele>264.49987792969</ele>
        <time>2011-03-06T08:39:16Z</time>
      </trkpt>
      <trkpt lat="45.51761" lon="0.6924">
        <ele>266.42248535156</ele>
        <time>2011-03-06T08:39:30Z</time>
      </trkpt>
      <trkpt lat="45.51754" lon="0.69256">
        <ele>266.90319824219</ele>
        <time>2011-03-06T08:39:33Z</time>
      </trkpt>
      <trkpt lat="45.51735" lon="0.69283">
        <ele>265.94189453125</ele>
        <time>2011-03-06T08:39:39Z</time>
      </trkpt>
      <trkpt lat="45.51714" lon="0.693">
        <ele>266.42248535156</ele>
        <time>2011-03-06T08:39:44Z</time>
      </trkpt>
      <trkpt lat="45.51705" lon="0.69304">
        <ele>266.42248535156</ele>
        <time>2011-03-06T08:39:46Z</time>
      </trkpt>
      <trkpt lat="45.51632" lon="0.69308">
        <ele>266.90319824219</ele>
        <time>2011-03-06T08:40:01Z</time>
      </trkpt>
      <trkpt lat="45.51621" lon="0.69308">
        <ele>266.90319824219</ele>
        <time>2011-03-06T08:40:03Z</time>
      </trkpt>
      <trkpt lat="45.51605" lon="0.69311">
        <ele>266.42248535156</ele>
        <time>2011-03-06T08:40:06Z</time>
      </trkpt>
      <trkpt lat="45.5158" lon="0.69327">
        <ele>264.98059082031</ele>
        <time>2011-03-06T08:40:11Z</time>
      </trkpt>
      <trkpt lat="45.51563" lon="0.69346">
        <ele>263.05786132812</ele>
        <time>2011-03-06T08:40:15Z</time>
      </trkpt>
      <trkpt lat="45.51544" lon="0.69386">
        <ele>261.13525390625</ele>
        <time>2011-03-06T08:40:21Z</time>
      </trkpt>
      <trkpt lat="45.51525" lon="0.69463">
        <ele>262.09655761719</ele>
        <time>2011-03-06T08:40:30Z</time>
      </trkpt>
      <trkpt lat="45.51521" lon="0.69487">
        <ele>262.5771484375</ele>
        <time>2011-03-06T08:40:33Z</time>
      </trkpt>
      <trkpt lat="45.51506" lon="0.69535">
        <ele>261.61596679688</ele>
        <time>2011-03-06T08:40:40Z</time>
      </trkpt>
      <trkpt lat="45.51488" lon="0.69563">
        <ele>261.13525390625</ele>
        <time>2011-03-06T08:40:45Z</time>
      </trkpt>
      <trkpt lat="45.5148" lon="0.69572">
        <ele>261.61596679688</ele>
        <time>2011-03-06T08:40:47Z</time>
      </trkpt>
      <trkpt lat="45.51405" lon="0.69605">
        <ele>262.09655761719</ele>
        <time>2011-03-06T08:41:02Z</time>
      </trkpt>
      <trkpt lat="45.51394" lon="0.69608">
        <ele>262.5771484375</ele>
        <time>2011-03-06T08:41:04Z</time>
      </trkpt>
      <trkpt lat="45.51384" lon="0.69612">
        <ele>262.5771484375</ele>
        <time>2011-03-06T08:41:06Z</time>
      </trkpt>
      <trkpt lat="45.5134" lon="0.69638">
        <ele>260.65454101562</ele>
        <time>2011-03-06T08:41:14Z</time>
      </trkpt>
      <trkpt lat="45.51268" lon="0.69705">
        <ele>257.77075195312</ele>
        <time>2011-03-06T08:41:28Z</time>
      </trkpt>
      <trkpt lat="45.51222" lon="0.69754">
        <ele>256.32873535156</ele>
        <time>2011-03-06T08:41:38Z</time>
      </trkpt>
      <trkpt lat="45.5122" lon="0.69778">
        <ele>258.73193359375</ele>
        <time>2011-03-06T08:41:43Z</time>
      </trkpt>
      <trkpt lat="45.51265" lon="0.69829">
        <ele>259.693359375</ele>
        <time>2011-03-06T08:41:59Z</time>
      </trkpt>
      <trkpt lat="45.51285" lon="0.6985">
        <ele>260.17395019531</ele>
        <time>2011-03-06T08:42:05Z</time>
      </trkpt>
      <trkpt lat="45.51296" lon="0.69858">
        <ele>260.17395019531</ele>
        <time>2011-03-06T08:42:08Z</time>
      </trkpt>
      <trkpt lat="45.51349" lon="0.69881">
        <ele>259.21264648438</ele>
        <time>2011-03-06T08:42:22Z</time>
      </trkpt>
      <trkpt lat="45.51362" lon="0.69887">
        <ele>259.21264648438</ele>
        <time>2011-03-06T08:42:25Z</time>
      </trkpt>
      <trkpt lat="45.51381" lon="0.69893">
        <ele>259.21264648438</ele>
        <time>2011-03-06T08:42:29Z</time>
      </trkpt>
      <trkpt lat="45.51457" lon="0.699">
        <ele>260.65454101562</ele>
        <time>2011-03-06T08:42:44Z</time>
      </trkpt>
      <trkpt lat="45.51482" lon="0.69901">
        <ele>260.17395019531</ele>
        <time>2011-03-06T08:42:53Z</time>
      </trkpt>
      <trkpt lat="45.51511" lon="0.69916">
        <ele>263.05786132812</ele>
        <time>2011-03-06T08:43:02Z</time>
      </trkpt>
      <trkpt lat="45.5152" lon="0.6993">
        <ele>263.53857421875</ele>
        <time>2011-03-06T08:43:05Z</time>
      </trkpt>
      <trkpt lat="45.51545" lon="0.69996">
        <ele>267.38391113281</ele>
        <time>2011-03-06T08:43:17Z</time>
      </trkpt>
      <trkpt lat="45.51548" lon="0.7006">
        <ele>265.94189453125</ele>
        <time>2011-03-06T08:43:29Z</time>
      </trkpt>
      <trkpt lat="45.51532" lon="0.70126">
        <ele>266.42248535156</ele>
        <time>2011-03-06T08:43:41Z</time>
      </trkpt>
      <trkpt lat="45.5149" lon="0.702">
        <ele>267.86450195312</ele>
        <time>2011-03-06T08:43:57Z</time>
      </trkpt>
      <trkpt lat="45.51479" lon="0.70225">
        <ele>268.82580566406</ele>
        <time>2011-03-06T08:44:02Z</time>
      </trkpt>
      <trkpt lat="45.51461" lon="0.70258">
        <ele>270.26770019531</ele>
        <time>2011-03-06T08:44:09Z</time>
      </trkpt>
      <trkpt lat="45.51447" lon="0.70281">
        <ele>267.86450195312</ele>
        <time>2011-03-06T08:44:14Z</time>
      </trkpt>
      <trkpt lat="45.51425" lon="0.70319">
        <ele>267.38391113281</ele>
        <time>2011-03-06T08:44:21Z</time>
      </trkpt>
      <trkpt lat="45.51401" lon="0.70333">
        <ele>266.90319824219</ele>
        <time>2011-03-06T08:44:26Z</time>
      </trkpt>
      <trkpt lat="45.51358" lon="0.70357">
        <ele>265.94189453125</ele>
        <time>2011-03-06T08:44:34Z</time>
      </trkpt>
      <trkpt lat="45.51313" lon="0.70443">
        <ele>263.05786132812</ele>
        <time>2011-03-06T08:44:47Z</time>
      </trkpt>
      <trkpt lat="45.51268" lon="0.7048">
        <ele>262.09655761719</ele>
        <time>2011-03-06T08:44:56Z</time>
      </trkpt>
      <trkpt lat="45.5123" lon="0.7052">
        <ele>263.05786132812</ele>
        <time>2011-03-06T08:45:04Z</time>
      </trkpt>
      <trkpt lat="45.51217" lon="0.70536">
        <ele>263.53857421875</ele>
        <time>2011-03-06T08:45:07Z</time>
      </trkpt>
      <trkpt lat="45.51195" lon="0.70581">
        <ele>265.46130371094</ele>
        <time>2011-03-06T08:45:14Z</time>
      </trkpt>
      <trkpt lat="45.51209" lon="0.70597">
        <ele>264.49987792969</ele>
        <time>2011-03-06T08:45:19Z</time>
      </trkpt>
      <trkpt lat="45.51285" lon="0.7067">
        <ele>272.67114257812</ele>
        <time>2011-03-06T08:45:38Z</time>
      </trkpt>
      <trkpt lat="45.51288" lon="0.70678">
        <ele>273.63244628906</ele>
        <time>2011-03-06T08:45:40Z</time>
      </trkpt>
      <trkpt lat="45.51257" lon="0.70719">
        <ele>273.15185546875</ele>
        <time>2011-03-06T08:45:52Z</time>
      </trkpt>
      <trkpt lat="45.51212" lon="0.70772">
        <ele>272.1904296875</ele>
        <time>2011-03-06T08:46:05Z</time>
      </trkpt>
      <trkpt lat="45.51157" lon="0.70839">
        <ele>270.74841308594</ele>
        <time>2011-03-06T08:46:21Z</time>
      </trkpt>
      <trkpt lat="45.5115" lon="0.70868">
        <ele>270.74841308594</ele>
        <time>2011-03-06T08:46:26Z</time>
      </trkpt>
      <trkpt lat="45.51131" lon="0.70913">
        <ele>273.63244628906</ele>
        <time>2011-03-06T08:46:35Z</time>
      </trkpt>
      <trkpt lat="45.51139" lon="0.70925">
        <ele>274.59375</ele>
        <time>2011-03-06T08:46:39Z</time>
      </trkpt>
      <trkpt lat="45.51196" lon="0.7093">
        <ele>277.47766113281</ele>
        <time>2011-03-06T08:46:53Z</time>
      </trkpt>
      <trkpt lat="45.51254" lon="0.70935">
        <ele>279.40026855469</ele>
        <time>2011-03-06T08:47:05Z</time>
      </trkpt>
      <trkpt lat="45.51264" lon="0.70937">
        <ele>279.880859375</ele>
        <time>2011-03-06T08:47:07Z</time>
      </trkpt>
      <trkpt lat="45.51325" lon="0.70976">
        <ele>280.84240722656</ele>
        <time>2011-03-06T08:47:22Z</time>
      </trkpt>
      <trkpt lat="45.51392" lon="0.71025">
        <ele>284.68762207031</ele>
        <time>2011-03-06T08:47:45Z</time>
      </trkpt>
      <trkpt lat="45.51461" lon="0.7107">
        <ele>287.57141113281</ele>
        <time>2011-03-06T08:48:05Z</time>
      </trkpt>
      <trkpt lat="45.51529" lon="0.7113">
        <ele>287.0908203125</ele>
        <time>2011-03-06T08:48:27Z</time>
      </trkpt>
      <trkpt lat="45.51577" lon="0.71188">
        <ele>292.37817382812</ele>
        <time>2011-03-06T08:48:43Z</time>
      </trkpt>
      <trkpt lat="45.51633" lon="0.71254">
        <ele>297.66540527344</ele>
        <time>2011-03-06T08:49:01Z</time>
      </trkpt>
      <trkpt lat="45.51645" lon="0.71266">
        <ele>296.7041015625</ele>
        <time>2011-03-06T08:49:05Z</time>
      </trkpt>
      <trkpt lat="45.51657" lon="0.71283">
        <ele>296.7041015625</ele>
        <time>2011-03-06T08:49:09Z</time>
      </trkpt>
      <trkpt lat="45.51676" lon="0.71284">
        <ele>298.14611816406</ele>
        <time>2011-03-06T08:49:15Z</time>
      </trkpt>
      <trkpt lat="45.51704" lon="0.71236">
        <ele>295.74267578125</ele>
        <time>2011-03-06T08:49:25Z</time>
      </trkpt>
      <trkpt lat="45.5176" lon="0.71159">
        <ele>298.62670898438</ele>
        <time>2011-03-06T08:49:42Z</time>
      </trkpt>
      <trkpt lat="45.51778" lon="0.71136">
        <ele>299.10729980469</ele>
        <time>2011-03-06T08:49:47Z</time>
      </trkpt>
      <trkpt lat="45.5179" lon="0.71129">
        <ele>298.62670898438</ele>
        <time>2011-03-06T08:49:50Z</time>
      </trkpt>
      <trkpt lat="45.51804" lon="0.71125">
        <ele>297.18469238281</ele>
        <time>2011-03-06T08:49:53Z</time>
      </trkpt>
      <trkpt lat="45.51814" lon="0.71104">
        <ele>296.22351074219</ele>
        <time>2011-03-06T08:49:57Z</time>
      </trkpt>
      <trkpt lat="45.51821" lon="0.71065">
        <ele>296.22351074219</ele>
        <time>2011-03-06T08:50:02Z</time>
      </trkpt>
      <trkpt lat="45.51847" lon="0.70939">
        <ele>293.82006835938</ele>
        <time>2011-03-06T08:50:19Z</time>
      </trkpt>
      <trkpt lat="45.51848" lon="0.70922">
        <ele>293.33935546875</ele>
        <time>2011-03-06T08:50:21Z</time>
      </trkpt>
      <trkpt lat="45.51848" lon="0.70907">
        <ele>292.85876464844</ele>
        <time>2011-03-06T08:50:23Z</time>
      </trkpt>
      <trkpt lat="45.51867" lon="0.70891">
        <ele>291.41674804688</ele>
        <time>2011-03-06T08:50:28Z</time>
      </trkpt>
      <trkpt lat="45.51936" lon="0.70893">
        <ele>286.12951660156</ele>
        <time>2011-03-06T08:50:38Z</time>
      </trkpt>
      <trkpt lat="45.5198" lon="0.70905">
        <ele>283.24560546875</ele>
        <time>2011-03-06T08:50:44Z</time>
      </trkpt>
      <trkpt lat="45.52003" lon="0.70949">
        <ele>280.84240722656</ele>
        <time>2011-03-06T08:50:50Z</time>
      </trkpt>
      <trkpt lat="45.52007" lon="0.70965">
        <ele>280.84240722656</ele>
        <time>2011-03-06T08:50:52Z</time>
      </trkpt>
      <trkpt lat="45.5204" lon="0.71023">
        <ele>278.43896484375</ele>
        <time>2011-03-06T08:51:01Z</time>
      </trkpt>
      <trkpt lat="45.52087" lon="0.7104">
        <ele>275.55505371094</ele>
        <time>2011-03-06T08:51:08Z</time>
      </trkpt>
      <trkpt lat="45.52147" lon="0.71019">
        <ele>278.43896484375</ele>
        <time>2011-03-06T08:51:19Z</time>
      </trkpt>
      <trkpt lat="45.52173" lon="0.7102">
        <ele>278.91967773438</ele>
        <time>2011-03-06T08:51:24Z</time>
      </trkpt>
      <trkpt lat="45.52189" lon="0.71028">
        <ele>278.91967773438</ele>
        <time>2011-03-06T08:51:27Z</time>
      </trkpt>
      <trkpt lat="45.52292" lon="0.71087">
        <ele>283.72619628906</ele>
        <time>2011-03-06T08:51:46Z</time>
      </trkpt>
      <trkpt lat="45.52379" lon="0.71128">
        <ele>291.8974609375</ele>
        <time>2011-03-06T08:52:04Z</time>
      </trkpt>
      <trkpt lat="45.52431" lon="0.71151">
        <ele>296.7041015625</ele>
        <time>2011-03-06T08:52:20Z</time>
      </trkpt>
      <trkpt lat="45.52501" lon="0.71184">
        <ele>298.14611816406</ele>
        <time>2011-03-06T08:52:39Z</time>
      </trkpt>
      <trkpt lat="45.52578" lon="0.71233">
        <ele>291.41674804688</ele>
        <time>2011-03-06T08:52:54Z</time>
      </trkpt>
      <trkpt lat="45.52682" lon="0.71303">
        <ele>284.20690917969</ele>
        <time>2011-03-06T08:53:07Z</time>
      </trkpt>
      <trkpt lat="45.52806" lon="0.71427">
        <ele>272.1904296875</ele>
        <time>2011-03-06T08:53:25Z</time>
      </trkpt>
      <trkpt lat="45.52825" lon="0.71433">
        <ele>270.74841308594</ele>
        <time>2011-03-06T08:53:33Z</time>
      </trkpt>
      <trkpt lat="45.52825" lon="0.71429">
        <ele>270.74841308594</ele>
        <time>2011-03-06T08:53:34Z</time>
      </trkpt>
      <trkpt lat="45.52843" lon="0.7138">
        <ele>272.67114257812</ele>
        <time>2011-03-06T08:53:49Z</time>
      </trkpt>
      <trkpt lat="45.52864" lon="0.71324">
        <ele>272.67114257812</ele>
        <time>2011-03-06T08:54:05Z</time>
      </trkpt>
      <trkpt lat="45.52867" lon="0.71312">
        <ele>272.1904296875</ele>
        <time>2011-03-06T08:54:07Z</time>
      </trkpt>
      <trkpt lat="45.52875" lon="0.71284">
        <ele>270.74841308594</ele>
        <time>2011-03-06T08:54:11Z</time>
      </trkpt>
      <trkpt lat="45.529" lon="0.71188">
        <ele>273.63244628906</ele>
        <time>2011-03-06T08:54:26Z</time>
      </trkpt>
      <trkpt lat="45.52925" lon="0.71086">
        <ele>272.67114257812</ele>
        <time>2011-03-06T08:54:46Z</time>
      </trkpt>
      <trkpt lat="45.52938" lon="0.71015">
        <ele>270.74841308594</ele>
        <time>2011-03-06T08:54:57Z</time>
      </trkpt>
      <trkpt lat="45.52939" lon="0.70981">
        <ele>267.38391113281</ele>
        <time>2011-03-06T08:55:01Z</time>
      </trkpt>
      <trkpt lat="45.52933" lon="0.70936">
        <ele>264.98059082031</ele>
        <time>2011-03-06T08:55:05Z</time>
      </trkpt>
      <trkpt lat="45.52936" lon="0.70885">
        <ele>264.01928710938</ele>
        <time>2011-03-06T08:55:10Z</time>
      </trkpt>
      <trkpt lat="45.52941" lon="0.70865">
        <ele>264.01928710938</ele>
        <time>2011-03-06T08:55:14Z</time>
      </trkpt>
      <trkpt lat="45.5295" lon="0.70809">
        <ele>263.53857421875</ele>
        <time>2011-03-06T08:55:26Z</time>
      </trkpt>
      <trkpt lat="45.52949" lon="0.70789">
        <ele>264.01928710938</ele>
        <time>2011-03-06T08:55:33Z</time>
      </trkpt>
      <trkpt lat="45.52957" lon="0.7075">
        <ele>265.46130371094</ele>
        <time>2011-03-06T08:55:42Z</time>
      </trkpt>
      <trkpt lat="45.52962" lon="0.70676">
        <ele>267.86450195312</ele>
        <time>2011-03-06T08:55:56Z</time>
      </trkpt>
      <trkpt lat="45.52966" lon="0.70605">
        <ele>270.26770019531</ele>
        <time>2011-03-06T08:56:10Z</time>
      </trkpt>
      <trkpt lat="45.52969" lon="0.70563">
        <ele>271.70971679688</ele>
        <time>2011-03-06T08:56:20Z</time>
      </trkpt>
      <trkpt lat="45.52967" lon="0.70509">
        <ele>270.74841308594</ele>
        <time>2011-03-06T08:56:31Z</time>
      </trkpt>
      <trkpt lat="45.52963" lon="0.70448">
        <ele>269.30651855469</ele>
        <time>2011-03-06T08:56:43Z</time>
      </trkpt>
      <trkpt lat="45.52962" lon="0.70436">
        <ele>269.787109375</ele>
        <time>2011-03-06T08:56:45Z</time>
      </trkpt>
      <trkpt lat="45.52964" lon="0.70391">
        <ele>271.22912597656</ele>
        <time>2011-03-06T08:56:53Z</time>
      </trkpt>
      <trkpt lat="45.5297" lon="0.70351">
        <ele>273.63244628906</ele>
        <time>2011-03-06T08:57:00Z</time>
      </trkpt>
      <trkpt lat="45.52993" lon="0.70303">
        <ele>281.80358886719</ele>
        <time>2011-03-06T08:57:11Z</time>
      </trkpt>
      <trkpt lat="45.53013" lon="0.70241">
        <ele>281.32299804688</ele>
        <time>2011-03-06T08:57:24Z</time>
      </trkpt>
      <trkpt lat="45.53027" lon="0.70163">
        <ele>283.72619628906</ele>
        <time>2011-03-06T08:57:43Z</time>
      </trkpt>
      <trkpt lat="45.53012" lon="0.7007">
        <ele>277.95825195312</ele>
        <time>2011-03-06T08:57:59Z</time>
      </trkpt>
      <trkpt lat="45.53008" lon="0.70047">
        <ele>276.9970703125</ele>
        <time>2011-03-06T08:58:02Z</time>
      </trkpt>
      <trkpt lat="45.53008" lon="0.70022">
        <ele>275.55505371094</ele>
        <time>2011-03-06T08:58:05Z</time>
      </trkpt>
      <trkpt lat="45.53017" lon="0.69894">
        <ele>269.787109375</ele>
        <time>2011-03-06T08:58:15Z</time>
      </trkpt>
      <trkpt lat="45.53033" lon="0.69645">
        <ele>251.52209472656</ele>
        <time>2011-03-06T08:58:31Z</time>
      </trkpt>
      <trkpt lat="45.53019" lon="0.69429">
        <ele>236.14099121094</ele>
        <time>2011-03-06T08:58:43Z</time>
      </trkpt>
      <trkpt lat="45.52997" lon="0.69321">
        <ele>228.45043945312</ele>
        <time>2011-03-06T08:58:50Z</time>
      </trkpt>
      <trkpt lat="45.53001" lon="0.69276">
        <ele>222.68249511719</ele>
        <time>2011-03-06T08:58:54Z</time>
      </trkpt>
      <trkpt lat="45.53072" lon="0.69123">
        <ele>207.30139160156</ele>
        <time>2011-03-06T08:59:04Z</time>
      </trkpt>
      <trkpt lat="45.53148" lon="0.68899">
        <ele>184.71057128906</ele>
        <time>2011-03-06T08:59:16Z</time>
      </trkpt>
      <trkpt lat="45.53172" lon="0.68769">
        <ele>172.69396972656</ele>
        <time>2011-03-06T08:59:24Z</time>
      </trkpt>
      <trkpt lat="45.53174" lon="0.68761">
        <ele>171.73266601562</ele>
        <time>2011-03-06T08:59:25Z</time>
      </trkpt>
      <trkpt lat="45.53165" lon="0.68745">
        <ele>171.25207519531</ele>
        <time>2011-03-06T08:59:32Z</time>
      </trkpt>
      <trkpt lat="45.53143" lon="0.68748">
        <ele>170.77136230469</ele>
        <time>2011-03-06T09:00:44Z</time>
      </trkpt>
      <trkpt lat="45.53104" lon="0.68751">
        <ele>170.29064941406</ele>
        <time>2011-03-06T09:00:59Z</time>
      </trkpt>
      <trkpt lat="45.53049" lon="0.68752">
        <ele>168.84875488281</ele>
        <time>2011-03-06T09:01:13Z</time>
      </trkpt>
      <trkpt lat="45.52996" lon="0.68723">
        <ele>164.52270507812</ele>
        <time>2011-03-06T09:01:27Z</time>
      </trkpt>
      <trkpt lat="45.52965" lon="0.68676">
        <ele>160.19689941406</ele>
        <time>2011-03-06T09:01:42Z</time>
      </trkpt>
      <trkpt lat="45.52945" lon="0.68645">
        <ele>163.5615234375</ele>
        <time>2011-03-06T09:01:52Z</time>
      </trkpt>
      <trkpt lat="45.52941" lon="0.68639">
        <ele>165.48413085938</ele>
        <time>2011-03-06T09:01:55Z</time>
      </trkpt>
      <trkpt lat="45.52949" lon="0.68621">
        <ele>168.84875488281</ele>
        <time>2011-03-06T09:02:03Z</time>
      </trkpt>
      <trkpt lat="45.52977" lon="0.68608">
        <ele>171.25207519531</ele>
        <time>2011-03-06T09:02:14Z</time>
      </trkpt>
      <trkpt lat="45.52997" lon="0.68568">
        <ele>173.6552734375</ele>
        <time>2011-03-06T09:02:26Z</time>
      </trkpt>
      <trkpt lat="45.53014" lon="0.68517">
        <ele>174.61657714844</ele>
        <time>2011-03-06T09:02:42Z</time>
      </trkpt>
      <trkpt lat="45.53016" lon="0.68502">
        <ele>175.09729003906</ele>
        <time>2011-03-06T09:02:46Z</time>
      </trkpt>
      <trkpt lat="45.53037" lon="0.6848">
        <ele>176.53930664062</ele>
        <time>2011-03-06T09:02:56Z</time>
      </trkpt>
      <trkpt lat="45.53069" lon="0.68459">
        <ele>178.94262695312</ele>
        <time>2011-03-06T09:03:09Z</time>
      </trkpt>
      <trkpt lat="45.53093" lon="0.68436">
        <ele>182.78784179688</ele>
        <time>2011-03-06T09:03:19Z</time>
      </trkpt>
      <trkpt lat="45.53103" lon="0.68422">
        <ele>186.15246582031</ele>
        <time>2011-03-06T09:03:23Z</time>
      </trkpt>
      <trkpt lat="45.53114" lon="0.68428">
        <ele>189.03637695312</ele>
        <time>2011-03-06T09:03:28Z</time>
      </trkpt>
      <trkpt lat="45.53134" lon="0.68451">
        <ele>192.40112304688</ele>
        <time>2011-03-06T09:03:40Z</time>
      </trkpt>
      <trkpt lat="45.5316" lon="0.68429">
        <ele>194.80432128906</ele>
        <time>2011-03-06T09:03:54Z</time>
      </trkpt>
      <trkpt lat="45.53174" lon="0.68408">
        <ele>200.09167480469</ele>
        <time>2011-03-06T09:04:03Z</time>
      </trkpt>
      <trkpt lat="45.53185" lon="0.68414">
        <ele>202.01428222656</ele>
        <time>2011-03-06T09:04:10Z</time>
      </trkpt>
      <trkpt lat="45.53188" lon="0.68417">
        <ele>202.97546386719</ele>
        <time>2011-03-06T09:04:12Z</time>
      </trkpt>
      <trkpt lat="45.53195" lon="0.68414">
        <ele>203.93688964844</ele>
        <time>2011-03-06T09:04:18Z</time>
      </trkpt>
      <trkpt lat="45.53203" lon="0.68369">
        <ele>205.85949707031</ele>
        <time>2011-03-06T09:04:34Z</time>
      </trkpt>
      <trkpt lat="45.53217" lon="0.6829">
        <ele>211.14672851562</ele>
        <time>2011-03-06T09:04:55Z</time>
      </trkpt>
      <trkpt lat="45.5323" lon="0.68227">
        <ele>215.47265625</ele>
        <time>2011-03-06T09:05:11Z</time>
      </trkpt>
      <trkpt lat="45.53253" lon="0.68201">
        <ele>213.0693359375</ele>
        <time>2011-03-06T09:05:23Z</time>
      </trkpt>
      <trkpt lat="45.53288" lon="0.68204">
        <ele>210.18542480469</ele>
        <time>2011-03-06T09:05:35Z</time>
      </trkpt>
      <trkpt lat="45.53337" lon="0.68191">
        <ele>202.97546386719</ele>
        <time>2011-03-06T09:05:47Z</time>
      </trkpt>
      <trkpt lat="45.53406" lon="0.6817">
        <ele>195.765625</ele>
        <time>2011-03-06T09:05:59Z</time>
      </trkpt>
      <trkpt lat="45.53438" lon="0.68158">
        <ele>193.3623046875</ele>
        <time>2011-03-06T09:06:04Z</time>
      </trkpt>
      <trkpt lat="45.53441" lon="0.68137">
        <ele>197.20751953125</ele>
        <time>2011-03-06T09:06:09Z</time>
      </trkpt>
      <trkpt lat="45.53431" lon="0.68104">
        <ele>198.64953613281</ele>
        <time>2011-03-06T09:06:22Z</time>
      </trkpt>
      <trkpt lat="45.53433" lon="0.68101">
        <ele>199.13012695312</ele>
        <time>2011-03-06T09:06:40Z</time>
      </trkpt>
      <trkpt lat="45.53435" lon="0.68093">
        <ele>198.64953613281</ele>
        <time>2011-03-06T09:06:53Z</time>
      </trkpt>
      <trkpt lat="45.53435" lon="0.68092">
        <ele>199.13012695312</ele>
        <time>2011-03-06T09:08:34Z</time>
      </trkpt>
      <trkpt lat="45.53444" lon="0.68077">
        <ele>200.572265625</ele>
        <time>2011-03-06T09:08:41Z</time>
      </trkpt>
      <trkpt lat="45.53485" lon="0.68081">
        <ele>196.24633789062</ele>
        <time>2011-03-06T09:08:55Z</time>
      </trkpt>
      <trkpt lat="45.53526" lon="0.68066">
        <ele>199.61083984375</ele>
        <time>2011-03-06T09:09:08Z</time>
      </trkpt>
      <trkpt lat="45.53571" lon="0.6803">
        <ele>202.01428222656</ele>
        <time>2011-03-06T09:09:24Z</time>
      </trkpt>
      <trkpt lat="45.53575" lon="0.68028">
        <ele>202.49487304688</ele>
        <time>2011-03-06T09:09:26Z</time>
      </trkpt>
      <trkpt lat="45.53606" lon="0.68003">
        <ele>201.53356933594</ele>
        <time>2011-03-06T09:09:38Z</time>
      </trkpt>
      <trkpt lat="45.53651" lon="0.67968">
        <ele>202.49487304688</ele>
        <time>2011-03-06T09:09:52Z</time>
      </trkpt>
      <trkpt lat="45.53667" lon="0.68003">
        <ele>200.09167480469</ele>
        <time>2011-03-06T09:09:59Z</time>
      </trkpt>
      <trkpt lat="45.53682" lon="0.68046">
        <ele>200.09167480469</ele>
        <time>2011-03-06T09:10:07Z</time>
      </trkpt>
      <trkpt lat="45.53694" lon="0.68046">
        <ele>200.09167480469</ele>
        <time>2011-03-06T09:10:10Z</time>
      </trkpt>
      <trkpt lat="45.5371" lon="0.68044">
        <ele>201.05285644531</ele>
        <time>2011-03-06T09:10:14Z</time>
      </trkpt>
      <trkpt lat="45.53733" lon="0.6805">
        <ele>202.49487304688</ele>
        <time>2011-03-06T09:10:19Z</time>
      </trkpt>
      <trkpt lat="45.5378" lon="0.68036">
        <ele>205.37878417969</ele>
        <time>2011-03-06T09:10:33Z</time>
      </trkpt>
      <trkpt lat="45.53814" lon="0.68039">
        <ele>209.22412109375</ele>
        <time>2011-03-06T09:10:43Z</time>
      </trkpt>
      <trkpt lat="45.53859" lon="0.68039">
        <ele>213.0693359375</ele>
        <time>2011-03-06T09:10:57Z</time>
      </trkpt>
      <trkpt lat="45.53897" lon="0.68038">
        <ele>218.83728027344</ele>
        <time>2011-03-06T09:11:10Z</time>
      </trkpt>
      <trkpt lat="45.53933" lon="0.68046">
        <ele>225.0859375</ele>
        <time>2011-03-06T09:11:24Z</time>
      </trkpt>
      <trkpt lat="45.53966" lon="0.68054">
        <ele>227.9697265625</ele>
        <time>2011-03-06T09:11:36Z</time>
      </trkpt>
      <trkpt lat="45.54001" lon="0.68048">
        <ele>227.9697265625</ele>
        <time>2011-03-06T09:11:48Z</time>
      </trkpt>
      <trkpt lat="45.54009" lon="0.68047">
        <ele>227.48913574219</ele>
        <time>2011-03-06T09:12:01Z</time>
      </trkpt>
      <trkpt lat="45.54013" lon="0.68051">
        <ele>227.9697265625</ele>
        <time>2011-03-06T09:13:37Z</time>
      </trkpt>
      <trkpt lat="45.54015" lon="0.68054">
        <ele>227.48913574219</ele>
        <time>2011-03-06T09:14:27Z</time>
      </trkpt>
      <trkpt lat="45.54015" lon="0.68052">
        <ele>227.00854492188</ele>
        <time>2011-03-06T09:14:56Z</time>
      </trkpt>
      <trkpt lat="45.54028" lon="0.68049">
        <ele>227.9697265625</ele>
        <time>2011-03-06T09:15:02Z</time>
      </trkpt>
      <trkpt lat="45.54047" lon="0.68052">
        <ele>227.00854492188</ele>
        <time>2011-03-06T09:15:06Z</time>
      </trkpt>
      <trkpt lat="45.54058" lon="0.68056">
        <ele>225.56652832031</ele>
        <time>2011-03-06T09:15:11Z</time>
      </trkpt>
      <trkpt lat="45.54067" lon="0.68052">
        <ele>223.64379882812</ele>
        <time>2011-03-06T09:15:16Z</time>
      </trkpt>
      <trkpt lat="45.5407" lon="0.68052">
        <ele>223.64379882812</ele>
        <time>2011-03-06T09:15:27Z</time>
      </trkpt>
      <trkpt lat="45.54076" lon="0.6805">
        <ele>223.16320800781</ele>
        <time>2011-03-06T09:15:39Z</time>
      </trkpt>
      <trkpt lat="45.54075" lon="0.68049">
        <ele>223.16320800781</ele>
        <time>2011-03-06T09:16:46Z</time>
      </trkpt>
      <trkpt lat="45.54078" lon="0.6805">
        <ele>223.64379882812</ele>
        <time>2011-03-06T09:16:48Z</time>
      </trkpt>
      <trkpt lat="45.5412" lon="0.68051">
        <ele>224.12451171875</ele>
        <time>2011-03-06T09:17:01Z</time>
      </trkpt>
      <trkpt lat="45.54123" lon="0.68049">
        <ele>224.12451171875</ele>
        <time>2011-03-06T09:17:03Z</time>
      </trkpt>
      <trkpt lat="45.54133" lon="0.68051">
        <ele>223.64379882812</ele>
        <time>2011-03-06T09:17:15Z</time>
      </trkpt>
      <trkpt lat="45.5417" lon="0.68052">
        <ele>218.83728027344</ele>
        <time>2011-03-06T09:17:29Z</time>
      </trkpt>
      <trkpt lat="45.5418" lon="0.68058">
        <ele>217.39538574219</ele>
        <time>2011-03-06T09:17:32Z</time>
      </trkpt>
      <trkpt lat="45.54215" lon="0.68035">
        <ele>216.91467285156</ele>
        <time>2011-03-06T09:17:44Z</time>
      </trkpt>
      <trkpt lat="45.54254" lon="0.68023">
        <ele>217.8759765625</ele>
        <time>2011-03-06T09:17:56Z</time>
      </trkpt>
      <trkpt lat="45.54259" lon="0.68005">
        <ele>218.35656738281</ele>
        <time>2011-03-06T09:18:03Z</time>
      </trkpt>
      <trkpt lat="45.54263" lon="0.67932">
        <ele>223.16320800781</ele>
        <time>2011-03-06T09:18:20Z</time>
      </trkpt>
      <trkpt lat="45.54266" lon="0.67881">
        <ele>226.04711914062</ele>
        <time>2011-03-06T09:18:31Z</time>
      </trkpt>
      <trkpt lat="45.54284" lon="0.67831">
        <ele>227.48913574219</ele>
        <time>2011-03-06T09:18:43Z</time>
      </trkpt>
      <trkpt lat="45.54303" lon="0.67788">
        <ele>231.33435058594</ele>
        <time>2011-03-06T09:18:58Z</time>
      </trkpt>
      <trkpt lat="45.54304" lon="0.67789">
        <ele>231.81494140625</ele>
        <time>2011-03-06T09:18:59Z</time>
      </trkpt>
      <trkpt lat="45.54327" lon="0.67819">
        <ele>235.66027832031</ele>
        <time>2011-03-06T09:19:11Z</time>
      </trkpt>
      <trkpt lat="45.54337" lon="0.67829">
        <ele>233.25708007812</ele>
        <time>2011-03-06T09:19:15Z</time>
      </trkpt>
      <trkpt lat="45.54343" lon="0.67829">
        <ele>234.69909667969</ele>
        <time>2011-03-06T09:19:19Z</time>
      </trkpt>
      <trkpt lat="45.54348" lon="0.67822">
        <ele>234.21838378906</ele>
        <time>2011-03-06T09:19:38Z</time>
      </trkpt>
      <trkpt lat="45.54353" lon="0.67816">
        <ele>234.69909667969</ele>
        <time>2011-03-06T09:19:42Z</time>
      </trkpt>
      <trkpt lat="45.54366" lon="0.67774">
        <ele>234.69909667969</ele>
        <time>2011-03-06T09:19:53Z</time>
      </trkpt>
      <trkpt lat="45.54371" lon="0.67697">
        <ele>237.58288574219</ele>
        <time>2011-03-06T09:20:07Z</time>
      </trkpt>
      <trkpt lat="45.54368" lon="0.67633">
        <ele>240.46704101562</ele>
        <time>2011-03-06T09:20:20Z</time>
      </trkpt>
      <trkpt lat="45.54364" lon="0.67604">
        <ele>243.35083007812</ele>
        <time>2011-03-06T09:20:27Z</time>
      </trkpt>
      <trkpt lat="45.54365" lon="0.67555">
        <ele>251.04138183594</ele>
        <time>2011-03-06T09:20:38Z</time>
      </trkpt>
      <trkpt lat="45.54364" lon="0.67551">
        <ele>251.04138183594</ele>
        <time>2011-03-06T09:20:39Z</time>
      </trkpt>
      <trkpt lat="45.54335" lon="0.67483">
        <ele>255.36730957031</ele>
        <time>2011-03-06T09:20:56Z</time>
      </trkpt>
      <trkpt lat="45.54332" lon="0.67436">
        <ele>260.65454101562</ele>
        <time>2011-03-06T09:21:07Z</time>
      </trkpt>
      <trkpt lat="45.54322" lon="0.67393">
        <ele>262.09655761719</ele>
        <time>2011-03-06T09:21:16Z</time>
      </trkpt>
      <trkpt lat="45.54346" lon="0.67351">
        <ele>265.94189453125</ele>
        <time>2011-03-06T09:21:27Z</time>
      </trkpt>
      <trkpt lat="45.5435" lon="0.67348">
        <ele>267.38391113281</ele>
        <time>2011-03-06T09:21:28Z</time>
      </trkpt>
      <trkpt lat="45.54361" lon="0.67341">
        <ele>268.34509277344</ele>
        <time>2011-03-06T09:21:31Z</time>
      </trkpt>
      <trkpt lat="45.5443" lon="0.67328">
        <ele>272.1904296875</ele>
        <time>2011-03-06T09:21:48Z</time>
      </trkpt>
      <trkpt lat="45.54445" lon="0.67322">
        <ele>272.1904296875</ele>
        <time>2011-03-06T09:21:52Z</time>
      </trkpt>
      <trkpt lat="45.54489" lon="0.67322">
        <ele>273.15185546875</ele>
        <time>2011-03-06T09:22:04Z</time>
      </trkpt>
      <trkpt lat="45.54524" lon="0.67308">
        <ele>276.9970703125</ele>
        <time>2011-03-06T09:22:15Z</time>
      </trkpt>
      <trkpt lat="45.54552" lon="0.6731">
        <ele>272.1904296875</ele>
        <time>2011-03-06T09:22:28Z</time>
      </trkpt>
      <trkpt lat="45.54583" lon="0.67296">
        <ele>271.70971679688</ele>
        <time>2011-03-06T09:22:40Z</time>
      </trkpt>
      <trkpt lat="45.54618" lon="0.67231">
        <ele>269.30651855469</ele>
        <time>2011-03-06T09:22:58Z</time>
      </trkpt>
      <trkpt lat="45.54653" lon="0.67162">
        <ele>270.26770019531</ele>
        <time>2011-03-06T09:23:14Z</time>
      </trkpt>
      <trkpt lat="45.54669" lon="0.67161">
        <ele>271.22912597656</ele>
        <time>2011-03-06T09:23:20Z</time>
      </trkpt>
      <trkpt lat="45.5467" lon="0.67141">
        <ele>271.22912597656</ele>
        <time>2011-03-06T09:23:25Z</time>
      </trkpt>
      <trkpt lat="45.5466" lon="0.67097">
        <ele>276.9970703125</ele>
        <time>2011-03-06T09:23:38Z</time>
      </trkpt>
      <trkpt lat="45.54656" lon="0.67056">
        <ele>281.80358886719</ele>
        <time>2011-03-06T09:23:50Z</time>
      </trkpt>
      <trkpt lat="45.54666" lon="0.66992">
        <ele>282.76501464844</ele>
        <time>2011-03-06T09:24:04Z</time>
      </trkpt>
      <trkpt lat="45.54662" lon="0.6694">
        <ele>283.72619628906</ele>
        <time>2011-03-06T09:24:17Z</time>
      </trkpt>
      <trkpt lat="45.54655" lon="0.66902">
        <ele>284.20690917969</ele>
        <time>2011-03-06T09:24:32Z</time>
      </trkpt>
      <trkpt lat="45.54646" lon="0.66872">
        <ele>283.72619628906</ele>
        <time>2011-03-06T09:25:39Z</time>
      </trkpt>
      <trkpt lat="45.54652" lon="0.66832">
        <ele>285.64880371094</ele>
        <time>2011-03-06T09:25:51Z</time>
      </trkpt>
      <trkpt lat="45.54669" lon="0.66794">
        <ele>287.0908203125</ele>
        <time>2011-03-06T09:26:06Z</time>
      </trkpt>
      <trkpt lat="45.54653" lon="0.66762">
        <ele>286.12951660156</ele>
        <time>2011-03-06T09:26:14Z</time>
      </trkpt>
      <trkpt lat="45.54597" lon="0.66674">
        <ele>283.72619628906</ele>
        <time>2011-03-06T09:26:31Z</time>
      </trkpt>
      <trkpt lat="45.54594" lon="0.66669">
        <ele>283.24560546875</ele>
        <time>2011-03-06T09:26:32Z</time>
      </trkpt>
      <trkpt lat="45.54602" lon="0.66652">
        <ele>283.72619628906</ele>
        <time>2011-03-06T09:26:38Z</time>
      </trkpt>
      <trkpt lat="45.5468" lon="0.66674">
        <ele>284.68762207031</ele>
        <time>2011-03-06T09:26:57Z</time>
      </trkpt>
      <trkpt lat="45.54774" lon="0.66662">
        <ele>285.16821289062</ele>
        <time>2011-03-06T09:27:15Z</time>
      </trkpt>
      <trkpt lat="45.548" lon="0.66658">
        <ele>285.64880371094</ele>
        <time>2011-03-06T09:27:20Z</time>
      </trkpt>
      <trkpt lat="45.54809" lon="0.66655">
        <ele>286.12951660156</ele>
        <time>2011-03-06T09:27:22Z</time>
      </trkpt>
      <trkpt lat="45.54842" lon="0.66652">
        <ele>287.0908203125</ele>
        <time>2011-03-06T09:27:29Z</time>
      </trkpt>
      <trkpt lat="45.5494" lon="0.6665">
        <ele>290.45556640625</ele>
        <time>2011-03-06T09:27:48Z</time>
      </trkpt>
      <trkpt lat="45.55061" lon="0.66672">
        <ele>289.01354980469</ele>
        <time>2011-03-06T09:28:08Z</time>
      </trkpt>
      <trkpt lat="45.55213" lon="0.66706">
        <ele>286.61022949219</ele>
        <time>2011-03-06T09:28:30Z</time>
      </trkpt>
      <trkpt lat="45.55395" lon="0.66721">
        <ele>286.12951660156</ele>
        <time>2011-03-06T09:28:55Z</time>
      </trkpt>
      <trkpt lat="45.55439" lon="0.66712">
        <ele>287.0908203125</ele>
        <time>2011-03-06T09:29:02Z</time>
      </trkpt>
      <trkpt lat="45.55471" lon="0.66725">
        <ele>289.494140625</ele>
        <time>2011-03-06T09:29:11Z</time>
      </trkpt>
      <trkpt lat="45.55506" lon="0.66731">
        <ele>289.97485351562</ele>
        <time>2011-03-06T09:29:23Z</time>
      </trkpt>
      <trkpt lat="45.5551" lon="0.66731">
        <ele>289.97485351562</ele>
        <time>2011-03-06T09:29:24Z</time>
      </trkpt>
      <trkpt lat="45.55521" lon="0.66729">
        <ele>289.97485351562</ele>
        <time>2011-03-06T09:29:27Z</time>
      </trkpt>
      <trkpt lat="45.55548" lon="0.66748">
        <ele>286.61022949219</ele>
        <time>2011-03-06T09:29:32Z</time>
      </trkpt>
      <trkpt lat="45.55563" lon="0.6677">
        <ele>285.64880371094</ele>
        <time>2011-03-06T09:29:35Z</time>
      </trkpt>
      <trkpt lat="45.55584" lon="0.66804">
        <ele>285.64880371094</ele>
        <time>2011-03-06T09:29:39Z</time>
      </trkpt>
      <trkpt lat="45.55608" lon="0.66824">
        <ele>285.16821289062</ele>
        <time>2011-03-06T09:29:43Z</time>
      </trkpt>
      <trkpt lat="45.55699" lon="0.66914">
        <ele>289.494140625</ele>
        <time>2011-03-06T09:30:02Z</time>
      </trkpt>
      <trkpt lat="45.55713" lon="0.66928">
        <ele>290.45556640625</ele>
        <time>2011-03-06T09:30:06Z</time>
      </trkpt>
      <trkpt lat="45.55729" lon="0.66926">
        <ele>290.45556640625</ele>
        <time>2011-03-06T09:30:10Z</time>
      </trkpt>
      <trkpt lat="45.55737" lon="0.66919">
        <ele>290.45556640625</ele>
        <time>2011-03-06T09:30:12Z</time>
      </trkpt>
      <trkpt lat="45.55746" lon="0.66914">
        <ele>290.45556640625</ele>
        <time>2011-03-06T09:30:14Z</time>
      </trkpt>
      <trkpt lat="45.55779" lon="0.66901">
        <ele>289.01354980469</ele>
        <time>2011-03-06T09:30:20Z</time>
      </trkpt>
      <trkpt lat="45.55791" lon="0.66893">
        <ele>287.0908203125</ele>
        <time>2011-03-06T09:30:22Z</time>
      </trkpt>
      <trkpt lat="45.55808" lon="0.66909">
        <ele>286.61022949219</ele>
        <time>2011-03-06T09:30:26Z</time>
      </trkpt>
      <trkpt lat="45.55821" lon="0.6693">
        <ele>284.68762207031</ele>
        <time>2011-03-06T09:30:29Z</time>
      </trkpt>
      <trkpt lat="45.55847" lon="0.6695">
        <ele>280.84240722656</ele>
        <time>2011-03-06T09:30:33Z</time>
      </trkpt>
      <trkpt lat="45.55849" lon="0.66981">
        <ele>280.84240722656</ele>
        <time>2011-03-06T09:30:37Z</time>
      </trkpt>
      <trkpt lat="45.5584" lon="0.66998">
        <ele>279.40026855469</ele>
        <time>2011-03-06T09:30:39Z</time>
      </trkpt>
      <trkpt lat="45.55827" lon="0.67043">
        <ele>278.91967773438</ele>
        <time>2011-03-06T09:30:43Z</time>
      </trkpt>
      <trkpt lat="45.5582" lon="0.67086">
        <ele>278.43896484375</ele>
        <time>2011-03-06T09:30:47Z</time>
      </trkpt>
      <trkpt lat="45.55809" lon="0.6712">
        <ele>276.51635742188</ele>
        <time>2011-03-06T09:30:51Z</time>
      </trkpt>
      <trkpt lat="45.55795" lon="0.67178">
        <ele>273.63244628906</ele>
        <time>2011-03-06T09:30:58Z</time>
      </trkpt>
      <trkpt lat="45.55803" lon="0.67186">
        <ele>274.11303710938</ele>
        <time>2011-03-06T09:31:03Z</time>
      </trkpt>
      <trkpt lat="45.55853" lon="0.67193">
        <ele>274.59375</ele>
        <time>2011-03-06T09:31:18Z</time>
      </trkpt>
      <trkpt lat="45.55863" lon="0.6719">
        <ele>274.59375</ele>
        <time>2011-03-06T09:31:21Z</time>
      </trkpt>
      <trkpt lat="45.55874" lon="0.67203">
        <ele>271.70971679688</ele>
        <time>2011-03-06T09:31:25Z</time>
      </trkpt>
      <trkpt lat="45.5592" lon="0.67292">
        <ele>265.94189453125</ele>
        <time>2011-03-06T09:31:36Z</time>
      </trkpt>
      <trkpt lat="45.55936" lon="0.67286">
        <ele>262.5771484375</ele>
        <time>2011-03-06T09:31:41Z</time>
      </trkpt>
      <trkpt lat="45.55964" lon="0.67306">
        <ele>256.80932617188</ele>
        <time>2011-03-06T09:31:46Z</time>
      </trkpt>
      <trkpt lat="45.55975" lon="0.67321">
        <ele>253.44470214844</ele>
        <time>2011-03-06T09:31:48Z</time>
      </trkpt>
      <trkpt lat="45.56011" lon="0.67347">
        <ele>247.6767578125</ele>
        <time>2011-03-06T09:31:53Z</time>
      </trkpt>
      <trkpt lat="45.56053" lon="0.67358">
        <ele>242.87023925781</ele>
        <time>2011-03-06T09:31:59Z</time>
      </trkpt>
      <trkpt lat="45.56093" lon="0.67319">
        <ele>241.42822265625</ele>
        <time>2011-03-06T09:32:07Z</time>
      </trkpt>
      <trkpt lat="45.56111" lon="0.67297">
        <ele>239.50549316406</ele>
        <time>2011-03-06T09:32:11Z</time>
      </trkpt>
      <trkpt lat="45.56151" lon="0.67289">
        <ele>234.21838378906</ele>
        <time>2011-03-06T09:32:17Z</time>
      </trkpt>
      <trkpt lat="45.56186" lon="0.67301">
        <ele>238.06359863281</ele>
        <time>2011-03-06T09:32:26Z</time>
      </trkpt>
      <trkpt lat="45.56209" lon="0.67354">
        <ele>238.54431152344</ele>
        <time>2011-03-06T09:32:40Z</time>
      </trkpt>
      <trkpt lat="45.56181" lon="0.67424">
        <ele>240.46704101562</ele>
        <time>2011-03-06T09:32:56Z</time>
      </trkpt>
      <trkpt lat="45.56174" lon="0.67486">
        <ele>242.87023925781</ele>
        <time>2011-03-06T09:33:10Z</time>
      </trkpt>
      <trkpt lat="45.562" lon="0.67533">
        <ele>243.35083007812</ele>
        <time>2011-03-06T09:33:23Z</time>
      </trkpt>
      <trkpt lat="45.56219" lon="0.67567">
        <ele>242.87023925781</ele>
        <time>2011-03-06T09:33:31Z</time>
      </trkpt>
      <trkpt lat="45.56222" lon="0.67582">
        <ele>241.90893554688</ele>
        <time>2011-03-06T09:33:33Z</time>
      </trkpt>
      <trkpt lat="45.56225" lon="0.67659">
        <ele>239.98620605469</ele>
        <time>2011-03-06T09:33:40Z</time>
      </trkpt>
      <trkpt lat="45.56264" lon="0.67708">
        <ele>238.06359863281</ele>
        <time>2011-03-06T09:33:48Z</time>
      </trkpt>
      <trkpt lat="45.56345" lon="0.67784">
        <ele>243.35083007812</ele>
        <time>2011-03-06T09:34:03Z</time>
      </trkpt>
      <trkpt lat="45.56349" lon="0.67788">
        <ele>243.35083007812</ele>
        <time>2011-03-06T09:34:04Z</time>
      </trkpt>
      <trkpt lat="45.56383" lon="0.67821">
        <ele>239.02490234375</ele>
        <time>2011-03-06T09:34:11Z</time>
      </trkpt>
      <trkpt lat="45.56385" lon="0.6788">
        <ele>235.66027832031</ele>
        <time>2011-03-06T09:34:17Z</time>
      </trkpt>
      <trkpt lat="45.56361" lon="0.67915">
        <ele>233.25708007812</ele>
        <time>2011-03-06T09:34:21Z</time>
      </trkpt>
      <trkpt lat="45.56334" lon="0.67968">
        <ele>229.41174316406</ele>
        <time>2011-03-06T09:34:26Z</time>
      </trkpt>
      <trkpt lat="45.56333" lon="0.67996">
        <ele>228.45043945312</ele>
        <time>2011-03-06T09:34:28Z</time>
      </trkpt>
      <trkpt lat="45.56318" lon="0.68026">
        <ele>227.9697265625</ele>
        <time>2011-03-06T09:34:33Z</time>
      </trkpt>
      <trkpt lat="45.56294" lon="0.6803">
        <ele>227.9697265625</ele>
        <time>2011-03-06T09:34:40Z</time>
      </trkpt>
      <trkpt lat="45.56288" lon="0.68054">
        <ele>227.48913574219</ele>
        <time>2011-03-06T09:34:49Z</time>
      </trkpt>
      <trkpt lat="45.56288" lon="0.68057">
        <ele>227.00854492188</ele>
        <time>2011-03-06T09:34:50Z</time>
      </trkpt>
      <trkpt lat="45.56288" lon="0.68101">
        <ele>227.48913574219</ele>
        <time>2011-03-06T09:35:02Z</time>
      </trkpt>
      <trkpt lat="45.5628" lon="0.68102">
        <ele>228.45043945312</ele>
        <time>2011-03-06T09:35:06Z</time>
      </trkpt>
      <trkpt lat="45.5628" lon="0.68112">
        <ele>230.373046875</ele>
        <time>2011-03-06T09:35:13Z</time>
      </trkpt>
      <trkpt lat="45.56277" lon="0.68116">
        <ele>232.77648925781</ele>
        <time>2011-03-06T09:35:17Z</time>
      </trkpt>
      <trkpt lat="45.56296" lon="0.68128">
        <ele>235.66027832031</ele>
        <time>2011-03-06T09:35:27Z</time>
      </trkpt>
      <trkpt lat="45.56316" lon="0.6814">
        <ele>240.94763183594</ele>
        <time>2011-03-06T09:35:38Z</time>
      </trkpt>
      <trkpt lat="45.56331" lon="0.6814">
        <ele>239.50549316406</ele>
        <time>2011-03-06T09:35:50Z</time>
      </trkpt>
      <trkpt lat="45.56331" lon="0.6814">
        <ele>239.50549316406</ele>
        <time>2011-03-06T09:35:53Z</time>
      </trkpt>
      <trkpt lat="45.56359" lon="0.68134">
        <ele>238.06359863281</ele>
        <time>2011-03-06T09:36:06Z</time>
      </trkpt>
      <trkpt lat="45.56396" lon="0.68127">
        <ele>238.54431152344</ele>
        <time>2011-03-06T09:36:21Z</time>
      </trkpt>
      <trkpt lat="45.56407" lon="0.68128">
        <ele>237.10229492188</ele>
        <time>2011-03-06T09:36:26Z</time>
      </trkpt>
      <trkpt lat="45.56411" lon="0.68133">
        <ele>235.1796875</ele>
        <time>2011-03-06T09:36:29Z</time>
      </trkpt>
      <trkpt lat="45.56415" lon="0.68136">
        <ele>234.69909667969</ele>
        <time>2011-03-06T09:36:31Z</time>
      </trkpt>
      <trkpt lat="45.56428" lon="0.68165">
        <ele>224.12451171875</ele>
        <time>2011-03-06T09:36:41Z</time>
      </trkpt>
      <trkpt lat="45.56436" lon="0.68175">
        <ele>218.83728027344</ele>
        <time>2011-03-06T09:36:46Z</time>
      </trkpt>
      <trkpt lat="45.56436" lon="0.68175">
        <ele>219.79858398438</ele>
        <time>2011-03-06T09:37:07Z</time>
      </trkpt>
      <trkpt lat="45.56444" lon="0.68184">
        <ele>218.35656738281</ele>
        <time>2011-03-06T09:39:10Z</time>
      </trkpt>
      <trkpt lat="45.5647" lon="0.68222">
        <ele>216.43395996094</ele>
        <time>2011-03-06T09:39:23Z</time>
      </trkpt>
      <trkpt lat="45.56483" lon="0.6826">
        <ele>215.95324707031</ele>
        <time>2011-03-06T09:39:34Z</time>
      </trkpt>
      <trkpt lat="45.56509" lon="0.68297">
        <ele>223.64379882812</ele>
        <time>2011-03-06T09:39:49Z</time>
      </trkpt>
      <trkpt lat="45.56534" lon="0.68326">
        <ele>225.0859375</ele>
        <time>2011-03-06T09:40:02Z</time>
      </trkpt>
      <trkpt lat="45.56561" lon="0.68365">
        <ele>234.21838378906</ele>
        <time>2011-03-06T09:40:18Z</time>
      </trkpt>
      <trkpt lat="45.56596" lon="0.68414">
        <ele>242.87023925781</ele>
        <time>2011-03-06T09:40:38Z</time>
      </trkpt>
      <trkpt lat="45.56612" lon="0.68466">
        <ele>246.71545410156</ele>
        <time>2011-03-06T09:40:55Z</time>
      </trkpt>
      <trkpt lat="45.56623" lon="0.68523">
        <ele>247.6767578125</ele>
        <time>2011-03-06T09:41:11Z</time>
      </trkpt>
      <trkpt lat="45.56633" lon="0.6858">
        <ele>250.08020019531</ele>
        <time>2011-03-06T09:41:26Z</time>
      </trkpt>
      <trkpt lat="45.56638" lon="0.68668">
        <ele>255.36730957031</ele>
        <time>2011-03-06T09:41:45Z</time>
      </trkpt>
      <trkpt lat="45.56637" lon="0.68688">
        <ele>253.92541503906</ele>
        <time>2011-03-06T09:41:49Z</time>
      </trkpt>
      <trkpt lat="45.56625" lon="0.68757">
        <ele>249.59948730469</ele>
        <time>2011-03-06T09:42:04Z</time>
      </trkpt>
      <trkpt lat="45.56615" lon="0.68806">
        <ele>248.15759277344</ele>
        <time>2011-03-06T09:42:12Z</time>
      </trkpt>
      <trkpt lat="45.56576" lon="0.68905">
        <ele>252.96398925781</ele>
        <time>2011-03-06T09:42:31Z</time>
      </trkpt>
      <trkpt lat="45.56561" lon="0.68988">
        <ele>259.693359375</ele>
        <time>2011-03-06T09:42:48Z</time>
      </trkpt>
      <trkpt lat="45.56549" lon="0.69029">
        <ele>262.09655761719</ele>
        <time>2011-03-06T09:42:57Z</time>
      </trkpt>
      <trkpt lat="45.56553" lon="0.69037">
        <ele>263.05786132812</ele>
        <time>2011-03-06T09:43:02Z</time>
      </trkpt>
      <trkpt lat="45.56569" lon="0.69028">
        <ele>264.49987792969</ele>
        <time>2011-03-06T09:43:13Z</time>
      </trkpt>
      <trkpt lat="45.56586" lon="0.69023">
        <ele>265.94189453125</ele>
        <time>2011-03-06T09:43:30Z</time>
      </trkpt>
      <trkpt lat="45.56587" lon="0.69022">
        <ele>265.94189453125</ele>
        <time>2011-03-06T09:43:31Z</time>
      </trkpt>
      <trkpt lat="45.56591" lon="0.69021">
        <ele>265.46130371094</ele>
        <time>2011-03-06T09:43:35Z</time>
      </trkpt>
      <trkpt lat="45.56595" lon="0.69018">
        <ele>265.46130371094</ele>
        <time>2011-03-06T09:43:39Z</time>
      </trkpt>
      <trkpt lat="45.56604" lon="0.69013">
        <ele>265.94189453125</ele>
        <time>2011-03-06T09:43:48Z</time>
      </trkpt>
      <trkpt lat="45.56604" lon="0.6901">
        <ele>265.94189453125</ele>
        <time>2011-03-06T09:43:53Z</time>
      </trkpt>
      <trkpt lat="45.56603" lon="0.69014">
        <ele>265.94189453125</ele>
        <time>2011-03-06T09:43:59Z</time>
      </trkpt>
      <trkpt lat="45.56619" lon="0.69008">
        <ele>265.94189453125</ele>
        <time>2011-03-06T09:44:17Z</time>
      </trkpt>
      <trkpt lat="45.56634" lon="0.69003">
        <ele>265.46130371094</ele>
        <time>2011-03-06T09:44:25Z</time>
      </trkpt>
      <trkpt lat="45.56667" lon="0.68997">
        <ele>263.05786132812</ele>
        <time>2011-03-06T09:44:39Z</time>
      </trkpt>
      <trkpt lat="45.56727" lon="0.68984">
        <ele>261.61596679688</ele>
        <time>2011-03-06T09:44:58Z</time>
      </trkpt>
      <trkpt lat="45.56778" lon="0.68947">
        <ele>264.98059082031</ele>
        <time>2011-03-06T09:45:14Z</time>
      </trkpt>
      <trkpt lat="45.56792" lon="0.68941">
        <ele>265.46130371094</ele>
        <time>2011-03-06T09:45:26Z</time>
      </trkpt>
      <trkpt lat="45.56792" lon="0.68941">
        <ele>266.42248535156</ele>
        <time>2011-03-06T09:46:36Z</time>
      </trkpt>
      <trkpt lat="45.56792" lon="0.68941">
        <ele>266.90319824219</ele>
        <time>2011-03-06T09:48:00Z</time>
      </trkpt>
      <trkpt lat="45.56792" lon="0.6894">
        <ele>266.90319824219</ele>
        <time>2011-03-06T09:48:38Z</time>
      </trkpt>
      <trkpt lat="45.56808" lon="0.68933">
        <ele>267.86450195312</ele>
        <time>2011-03-06T09:48:46Z</time>
      </trkpt>
      <trkpt lat="45.56842" lon="0.6892">
        <ele>268.34509277344</ele>
        <time>2011-03-06T09:48:55Z</time>
      </trkpt>
      <trkpt lat="45.56859" lon="0.68916">
        <ele>268.82580566406</ele>
        <time>2011-03-06T09:48:58Z</time>
      </trkpt>
      <trkpt lat="45.56878" lon="0.68914">
        <ele>266.90319824219</ele>
        <time>2011-03-06T09:49:01Z</time>
      </trkpt>
      <trkpt lat="45.56921" lon="0.68927">
        <ele>261.61596679688</ele>
        <time>2011-03-06T09:49:08Z</time>
      </trkpt>
      <trkpt lat="45.56974" lon="0.68942">
        <ele>258.73193359375</ele>
        <time>2011-03-06T09:49:19Z</time>
      </trkpt>
      <trkpt lat="45.57044" lon="0.68945">
        <ele>259.21264648438</ele>
        <time>2011-03-06T09:49:34Z</time>
      </trkpt>
      <trkpt lat="45.5707" lon="0.68948">
        <ele>258.73193359375</ele>
        <time>2011-03-06T09:49:46Z</time>
      </trkpt>
      <trkpt lat="45.5707" lon="0.68949">
        <ele>259.21264648438</ele>
        <time>2011-03-06T09:50:11Z</time>
      </trkpt>
      <trkpt lat="45.57071" lon="0.68949">
        <ele>258.73193359375</ele>
        <time>2011-03-06T09:50:46Z</time>
      </trkpt>
      <trkpt lat="45.57085" lon="0.68904">
        <ele>257.2900390625</ele>
        <time>2011-03-06T09:50:57Z</time>
      </trkpt>
      <trkpt lat="45.5712" lon="0.68781">
        <ele>254.40600585938</ele>
        <time>2011-03-06T09:51:11Z</time>
      </trkpt>
      <trkpt lat="45.57161" lon="0.68637">
        <ele>252.96398925781</ele>
        <time>2011-03-06T09:51:27Z</time>
      </trkpt>
      <trkpt lat="45.57207" lon="0.68504">
        <ele>256.80932617188</ele>
        <time>2011-03-06T09:51:45Z</time>
      </trkpt>
      <trkpt lat="45.57262" lon="0.68371">
        <ele>260.65454101562</ele>
        <time>2011-03-06T09:52:05Z</time>
      </trkpt>
      <trkpt lat="45.57275" lon="0.68282">
        <ele>261.13525390625</ele>
        <time>2011-03-06T09:52:16Z</time>
      </trkpt>
      <trkpt lat="45.57299" lon="0.68238">
        <ele>261.61596679688</ele>
        <time>2011-03-06T09:52:23Z</time>
      </trkpt>
      <trkpt lat="45.57369" lon="0.68208">
        <ele>258.73193359375</ele>
        <time>2011-03-06T09:52:34Z</time>
      </trkpt>
      <trkpt lat="45.57393" lon="0.68185">
        <ele>257.77075195312</ele>
        <time>2011-03-06T09:52:38Z</time>
      </trkpt>
      <trkpt lat="45.57398" lon="0.68161">
        <ele>255.84802246094</ele>
        <time>2011-03-06T09:52:42Z</time>
      </trkpt>
      <trkpt lat="45.57397" lon="0.68151">
        <ele>257.2900390625</ele>
        <time>2011-03-06T09:52:52Z</time>
      </trkpt>
      <trkpt lat="45.57397" lon="0.68144">
        <ele>257.2900390625</ele>
        <time>2011-03-06T09:53:08Z</time>
      </trkpt>
      <trkpt lat="45.57393" lon="0.68127">
        <ele>256.80932617188</ele>
        <time>2011-03-06T09:53:23Z</time>
      </trkpt>
      <trkpt lat="45.57391" lon="0.68112">
        <ele>257.2900390625</ele>
        <time>2011-03-06T09:53:28Z</time>
      </trkpt>
      <trkpt lat="45.57396" lon="0.6811">
        <ele>257.2900390625</ele>
        <time>2011-03-06T09:53:32Z</time>
      </trkpt>
      <trkpt lat="45.57405" lon="0.68107">
        <ele>256.80932617188</ele>
        <time>2011-03-06T09:53:38Z</time>
      </trkpt>
      <trkpt lat="45.57435" lon="0.68112">
        <ele>255.84802246094</ele>
        <time>2011-03-06T09:53:45Z</time>
      </trkpt>
      <trkpt lat="45.57478" lon="0.68135">
        <ele>255.84802246094</ele>
        <time>2011-03-06T09:53:59Z</time>
      </trkpt>
      <trkpt lat="45.57492" lon="0.6812">
        <ele>254.88659667969</ele>
        <time>2011-03-06T09:54:04Z</time>
      </trkpt>
      <trkpt lat="45.57561" lon="0.68038">
        <ele>250.08020019531</ele>
        <time>2011-03-06T09:54:16Z</time>
      </trkpt>
      <trkpt lat="45.57603" lon="0.67993">
        <ele>246.23486328125</ele>
        <time>2011-03-06T09:54:24Z</time>
      </trkpt>
      <trkpt lat="45.57673" lon="0.67899">
        <ele>240.46704101562</ele>
        <time>2011-03-06T09:54:35Z</time>
      </trkpt>
      <trkpt lat="45.57688" lon="0.67877">
        <ele>239.98620605469</ele>
        <time>2011-03-06T09:54:37Z</time>
      </trkpt>
      <trkpt lat="45.57725" lon="0.67842">
        <ele>236.62170410156</ele>
        <time>2011-03-06T09:54:41Z</time>
      </trkpt>
      <trkpt lat="45.57749" lon="0.67798">
        <ele>235.66027832031</ele>
        <time>2011-03-06T09:54:45Z</time>
      </trkpt>
      <trkpt lat="45.57811" lon="0.67556">
        <ele>231.33435058594</ele>
        <time>2011-03-06T09:55:05Z</time>
      </trkpt>
      <trkpt lat="45.57861" lon="0.67414">
        <ele>224.12451171875</ele>
        <time>2011-03-06T09:55:16Z</time>
      </trkpt>
      <trkpt lat="45.57919" lon="0.67256">
        <ele>204.89807128906</ele>
        <time>2011-03-06T09:55:26Z</time>
      </trkpt>
      <trkpt lat="45.57951" lon="0.67175">
        <ele>199.13012695312</ele>
        <time>2011-03-06T09:55:33Z</time>
      </trkpt>
      <trkpt lat="45.57952" lon="0.67164">
        <ele>197.68823242188</ele>
        <time>2011-03-06T09:55:41Z</time>
      </trkpt>
      <trkpt lat="45.5795" lon="0.67156">
        <ele>196.72692871094</ele>
        <time>2011-03-06T09:55:45Z</time>
      </trkpt>
      <trkpt lat="45.57958" lon="0.67104">
        <ele>196.72692871094</ele>
        <time>2011-03-06T09:56:00Z</time>
      </trkpt>
      <trkpt lat="45.57999" lon="0.67066">
        <ele>200.09167480469</ele>
        <time>2011-03-06T09:56:16Z</time>
      </trkpt>
      <trkpt lat="45.58046" lon="0.67026">
        <ele>205.85949707031</ele>
        <time>2011-03-06T09:56:32Z</time>
      </trkpt>
      <trkpt lat="45.58085" lon="0.67024">
        <ele>205.85949707031</ele>
        <time>2011-03-06T09:56:44Z</time>
      </trkpt>
      <trkpt lat="45.58159" lon="0.67075">
        <ele>210.18542480469</ele>
        <time>2011-03-06T09:57:05Z</time>
      </trkpt>
      <trkpt lat="45.58239" lon="0.67099">
        <ele>213.55004882812</ele>
        <time>2011-03-06T09:57:26Z</time>
      </trkpt>
      <trkpt lat="45.58344" lon="0.67135">
        <ele>218.35656738281</ele>
        <time>2011-03-06T09:57:49Z</time>
      </trkpt>
      <trkpt lat="45.58432" lon="0.6716">
        <ele>218.35656738281</ele>
        <time>2011-03-06T09:58:06Z</time>
      </trkpt>
      <trkpt lat="45.58551" lon="0.67228">
        <ele>223.16320800781</ele>
        <time>2011-03-06T09:58:29Z</time>
      </trkpt>
      <trkpt lat="45.58626" lon="0.67266">
        <ele>226.04711914062</ele>
        <time>2011-03-06T09:58:43Z</time>
      </trkpt>
      <trkpt lat="45.58722" lon="0.67263">
        <ele>229.89233398438</ele>
        <time>2011-03-06T09:58:58Z</time>
      </trkpt>
      <trkpt lat="45.5881" lon="0.67263">
        <ele>228.93115234375</ele>
        <time>2011-03-06T09:59:16Z</time>
      </trkpt>
      <trkpt lat="45.58829" lon="0.67263">
        <ele>227.9697265625</ele>
        <time>2011-03-06T09:59:21Z</time>
      </trkpt>
      <trkpt lat="45.58829" lon="0.67248">
        <ele>228.45043945312</ele>
        <time>2011-03-06T09:59:27Z</time>
      </trkpt>
      <trkpt lat="45.58799" lon="0.6723">
        <ele>227.9697265625</ele>
        <time>2011-03-06T09:59:43Z</time>
      </trkpt>
      <trkpt lat="45.58764" lon="0.67216">
        <ele>228.93115234375</ele>
        <time>2011-03-06T09:59:59Z</time>
      </trkpt>
      <trkpt lat="45.58729" lon="0.672">
        <ele>228.45043945312</ele>
        <time>2011-03-06T10:00:16Z</time>
      </trkpt>
      <trkpt lat="45.58685" lon="0.6718">
        <ele>226.04711914062</ele>
        <time>2011-03-06T10:00:33Z</time>
      </trkpt>
      <trkpt lat="45.58684" lon="0.67167">
        <ele>226.04711914062</ele>
        <time>2011-03-06T10:00:37Z</time>
      </trkpt>
      <trkpt lat="45.58698" lon="0.67103">
        <ele>225.0859375</ele>
        <time>2011-03-06T10:00:52Z</time>
      </trkpt>
      <trkpt lat="45.58701" lon="0.67075">
        <ele>224.60522460938</ele>
        <time>2011-03-06T10:00:56Z</time>
      </trkpt>
      <trkpt lat="45.58708" lon="0.67017">
        <ele>224.12451171875</ele>
        <time>2011-03-06T10:01:03Z</time>
      </trkpt>
      <trkpt lat="45.58704" lon="0.6698">
        <ele>226.52783203125</ele>
        <time>2011-03-06T10:01:08Z</time>
      </trkpt>
      <trkpt lat="45.58701" lon="0.66935">
        <ele>230.373046875</ele>
        <time>2011-03-06T10:01:15Z</time>
      </trkpt>
      <trkpt lat="45.58675" lon="0.66901">
        <ele>229.89233398438</ele>
        <time>2011-03-06T10:01:24Z</time>
      </trkpt>
      <trkpt lat="45.58666" lon="0.66893">
        <ele>228.93115234375</ele>
        <time>2011-03-06T10:01:26Z</time>
      </trkpt>
      <trkpt lat="45.58654" lon="0.66875">
        <ele>225.56652832031</ele>
        <time>2011-03-06T10:01:30Z</time>
      </trkpt>
      <trkpt lat="45.58646" lon="0.6686">
        <ele>224.12451171875</ele>
        <time>2011-03-06T10:01:32Z</time>
      </trkpt>
      <trkpt lat="45.58623" lon="0.66811">
        <ele>217.8759765625</ele>
        <time>2011-03-06T10:01:42Z</time>
      </trkpt>
      <trkpt lat="45.58619" lon="0.66785">
        <ele>216.43395996094</ele>
        <time>2011-03-06T10:01:49Z</time>
      </trkpt>
      <trkpt lat="45.58615" lon="0.66768">
        <ele>215.47265625</ele>
        <time>2011-03-06T10:01:56Z</time>
      </trkpt>
      <trkpt lat="45.58614" lon="0.66769">
        <ele>213.0693359375</ele>
        <time>2011-03-06T10:03:45Z</time>
      </trkpt>
      <trkpt lat="45.58621" lon="0.66752">
        <ele>213.0693359375</ele>
        <time>2011-03-06T10:03:54Z</time>
      </trkpt>
      <trkpt lat="45.58642" lon="0.66736">
        <ele>210.666015625</ele>
        <time>2011-03-06T10:04:05Z</time>
      </trkpt>
      <trkpt lat="45.58649" lon="0.66736">
        <ele>206.82067871094</ele>
        <time>2011-03-06T10:04:13Z</time>
      </trkpt>
      <trkpt lat="45.58664" lon="0.66726">
        <ele>203.45617675781</ele>
        <time>2011-03-06T10:04:23Z</time>
      </trkpt>
      <trkpt lat="45.58682" lon="0.66714">
        <ele>199.61083984375</ele>
        <time>2011-03-06T10:04:33Z</time>
      </trkpt>
      <trkpt lat="45.58692" lon="0.66711">
        <ele>197.20751953125</ele>
        <time>2011-03-06T10:04:42Z</time>
      </trkpt>
      <trkpt lat="45.58697" lon="0.66706">
        <ele>198.1689453125</ele>
        <time>2011-03-06T10:05:09Z</time>
      </trkpt>
      <trkpt lat="45.58699" lon="0.66705">
        <ele>199.13012695312</ele>
        <time>2011-03-06T10:05:29Z</time>
      </trkpt>
      <trkpt lat="45.58704" lon="0.667">
        <ele>198.64953613281</ele>
        <time>2011-03-06T10:05:33Z</time>
      </trkpt>
      <trkpt lat="45.58713" lon="0.66696">
        <ele>199.61083984375</ele>
        <time>2011-03-06T10:05:39Z</time>
      </trkpt>
      <trkpt lat="45.58721" lon="0.6669">
        <ele>200.09167480469</ele>
        <time>2011-03-06T10:05:44Z</time>
      </trkpt>
      <trkpt lat="45.58737" lon="0.6668">
        <ele>202.01428222656</ele>
        <time>2011-03-06T10:05:53Z</time>
      </trkpt>
      <trkpt lat="45.58753" lon="0.66676">
        <ele>205.37878417969</ele>
        <time>2011-03-06T10:06:05Z</time>
      </trkpt>
      <trkpt lat="45.58767" lon="0.66659">
        <ele>204.89807128906</ele>
        <time>2011-03-06T10:06:12Z</time>
      </trkpt>
      <trkpt lat="45.58787" lon="0.66644">
        <ele>204.89807128906</ele>
        <time>2011-03-06T10:06:21Z</time>
      </trkpt>
      <trkpt lat="45.58794" lon="0.66635">
        <ele>204.89807128906</ele>
        <time>2011-03-06T10:06:24Z</time>
      </trkpt>
      <trkpt lat="45.58811" lon="0.6664">
        <ele>205.85949707031</ele>
        <time>2011-03-06T10:06:28Z</time>
      </trkpt>
      <trkpt lat="45.5883" lon="0.66638">
        <ele>206.82067871094</ele>
        <time>2011-03-06T10:06:34Z</time>
      </trkpt>
      <trkpt lat="45.58845" lon="0.66641">
        <ele>206.34008789062</ele>
        <time>2011-03-06T10:06:39Z</time>
      </trkpt>
      <trkpt lat="45.58869" lon="0.66656">
        <ele>204.41748046875</ele>
        <time>2011-03-06T10:06:49Z</time>
      </trkpt>
      <trkpt lat="45.58883" lon="0.66664">
        <ele>201.53356933594</ele>
        <time>2011-03-06T10:06:53Z</time>
      </trkpt>
      <trkpt lat="45.58887" lon="0.66681">
        <ele>201.53356933594</ele>
        <time>2011-03-06T10:06:58Z</time>
      </trkpt>
      <trkpt lat="45.58888" lon="0.66713">
        <ele>205.85949707031</ele>
        <time>2011-03-06T10:07:12Z</time>
      </trkpt>
      <trkpt lat="45.58887" lon="0.66721">
        <ele>203.45617675781</ele>
        <time>2011-03-06T10:07:18Z</time>
      </trkpt>
      <trkpt lat="45.58885" lon="0.66727">
        <ele>203.93688964844</ele>
        <time>2011-03-06T10:07:21Z</time>
      </trkpt>
      <trkpt lat="45.58887" lon="0.6674">
        <ele>206.34008789062</ele>
        <time>2011-03-06T10:07:26Z</time>
      </trkpt>
      <trkpt lat="45.5889" lon="0.66763">
        <ele>206.34008789062</ele>
        <time>2011-03-06T10:07:36Z</time>
      </trkpt>
      <trkpt lat="45.5889" lon="0.66778">
        <ele>205.85949707031</ele>
        <time>2011-03-06T10:07:42Z</time>
      </trkpt>
      <trkpt lat="45.58889" lon="0.66781">
        <ele>206.82067871094</ele>
        <time>2011-03-06T10:07:44Z</time>
      </trkpt>
      <trkpt lat="45.58883" lon="0.66789">
        <ele>208.26281738281</ele>
        <time>2011-03-06T10:07:50Z</time>
      </trkpt>
      <trkpt lat="45.58883" lon="0.66796">
        <ele>206.82067871094</ele>
        <time>2011-03-06T10:07:53Z</time>
      </trkpt>
      <trkpt lat="45.58882" lon="0.66804">
        <ele>206.82067871094</ele>
        <time>2011-03-06T10:08:08Z</time>
      </trkpt>
      <trkpt lat="45.5888" lon="0.66812">
        <ele>206.34008789062</ele>
        <time>2011-03-06T10:08:19Z</time>
      </trkpt>
      <trkpt lat="45.58873" lon="0.66821">
        <ele>206.82067871094</ele>
        <time>2011-03-06T10:08:25Z</time>
      </trkpt>
      <trkpt lat="45.58867" lon="0.66831">
        <ele>209.22412109375</ele>
        <time>2011-03-06T10:08:31Z</time>
      </trkpt>
      <trkpt lat="45.5885" lon="0.6686">
        <ele>215.95324707031</ele>
        <time>2011-03-06T10:08:46Z</time>
      </trkpt>
      <trkpt lat="45.58851" lon="0.6687">
        <ele>214.51123046875</ele>
        <time>2011-03-06T10:08:51Z</time>
      </trkpt>
      <trkpt lat="45.58852" lon="0.66884">
        <ele>213.55004882812</ele>
        <time>2011-03-06T10:08:58Z</time>
      </trkpt>
      <trkpt lat="45.58854" lon="0.66887">
        <ele>212.58862304688</ele>
        <time>2011-03-06T10:09:01Z</time>
      </trkpt>
      <trkpt lat="45.5885" lon="0.66889">
        <ele>212.10803222656</ele>
        <time>2011-03-06T10:09:16Z</time>
      </trkpt>
      <trkpt lat="45.58839" lon="0.6691">
        <ele>214.99194335938</ele>
        <time>2011-03-06T10:09:49Z</time>
      </trkpt>
      <trkpt lat="45.58845" lon="0.6695">
        <ele>212.10803222656</ele>
        <time>2011-03-06T10:10:01Z</time>
      </trkpt>
      <trkpt lat="45.58857" lon="0.66943">
        <ele>208.26281738281</ele>
        <time>2011-03-06T10:10:06Z</time>
      </trkpt>
      <trkpt lat="45.58867" lon="0.66942">
        <ele>207.30139160156</ele>
        <time>2011-03-06T10:10:10Z</time>
      </trkpt>
      <trkpt lat="45.58874" lon="0.66933">
        <ele>207.78210449219</ele>
        <time>2011-03-06T10:10:15Z</time>
      </trkpt>
      <trkpt lat="45.58867" lon="0.66908">
        <ele>207.78210449219</ele>
        <time>2011-03-06T10:10:22Z</time>
      </trkpt>
      <trkpt lat="45.58871" lon="0.66894">
        <ele>208.26281738281</ele>
        <time>2011-03-06T10:10:26Z</time>
      </trkpt>
      <trkpt lat="45.58882" lon="0.66876">
        <ele>207.78210449219</ele>
        <time>2011-03-06T10:10:32Z</time>
      </trkpt>
      <trkpt lat="45.58881" lon="0.66869">
        <ele>209.22412109375</ele>
        <time>2011-03-06T10:10:34Z</time>
      </trkpt>
      <trkpt lat="45.58889" lon="0.66847">
        <ele>207.78210449219</ele>
        <time>2011-03-06T10:10:40Z</time>
      </trkpt>
      <trkpt lat="45.58894" lon="0.66843">
        <ele>207.30139160156</ele>
        <time>2011-03-06T10:10:42Z</time>
      </trkpt>
      <trkpt lat="45.58905" lon="0.66828">
        <ele>205.85949707031</ele>
        <time>2011-03-06T10:10:47Z</time>
      </trkpt>
      <trkpt lat="45.58924" lon="0.66801">
        <ele>204.41748046875</ele>
        <time>2011-03-06T10:10:58Z</time>
      </trkpt>
      <trkpt lat="45.5893" lon="0.66797">
        <ele>203.93688964844</ele>
        <time>2011-03-06T10:11:00Z</time>
      </trkpt>
      <trkpt lat="45.58938" lon="0.66774">
        <ele>201.05285644531</ele>
        <time>2011-03-06T10:11:09Z</time>
      </trkpt>
      <trkpt lat="45.58942" lon="0.66757">
        <ele>199.13012695312</ele>
        <time>2011-03-06T10:11:14Z</time>
      </trkpt>
      <trkpt lat="45.58952" lon="0.66724">
        <ele>207.30139160156</ele>
        <time>2011-03-06T10:11:29Z</time>
      </trkpt>
      <trkpt lat="45.58952" lon="0.66723">
        <ele>206.82067871094</ele>
        <time>2011-03-06T10:11:30Z</time>
      </trkpt>
      <trkpt lat="45.58951" lon="0.66711">
        <ele>206.82067871094</ele>
        <time>2011-03-06T10:11:36Z</time>
      </trkpt>
      <trkpt lat="45.58951" lon="0.66693">
        <ele>207.30139160156</ele>
        <time>2011-03-06T10:11:42Z</time>
      </trkpt>
      <trkpt lat="45.58954" lon="0.66679">
        <ele>208.26281738281</ele>
        <time>2011-03-06T10:11:46Z</time>
      </trkpt>
      <trkpt lat="45.58967" lon="0.66651">
        <ele>209.70483398438</ele>
        <time>2011-03-06T10:11:55Z</time>
      </trkpt>
      <trkpt lat="45.58999" lon="0.66638">
        <ele>209.70483398438</ele>
        <time>2011-03-06T10:12:04Z</time>
      </trkpt>
      <trkpt lat="45.59034" lon="0.66611">
        <ele>209.70483398438</ele>
        <time>2011-03-06T10:12:14Z</time>
      </trkpt>
      <trkpt lat="45.5904" lon="0.6661">
        <ele>210.18542480469</ele>
        <time>2011-03-06T10:12:17Z</time>
      </trkpt>
      <trkpt lat="45.5904" lon="0.66615">
        <ele>211.62744140625</ele>
        <time>2011-03-06T10:12:21Z</time>
      </trkpt>
      <trkpt lat="45.59026" lon="0.66631">
        <ele>212.10803222656</ele>
        <time>2011-03-06T10:12:34Z</time>
      </trkpt>
      <trkpt lat="45.59016" lon="0.66642">
        <ele>208.74340820312</ele>
        <time>2011-03-06T10:12:44Z</time>
      </trkpt>
      <trkpt lat="45.5901" lon="0.66665">
        <ele>208.26281738281</ele>
        <time>2011-03-06T10:12:50Z</time>
      </trkpt>
      <trkpt lat="45.59009" lon="0.66673">
        <ele>208.74340820312</ele>
        <time>2011-03-06T10:12:52Z</time>
      </trkpt>
      <trkpt lat="45.59006" lon="0.66713">
        <ele>211.62744140625</ele>
        <time>2011-03-06T10:13:03Z</time>
      </trkpt>
      <trkpt lat="45.59009" lon="0.66735">
        <ele>210.18542480469</ele>
        <time>2011-03-06T10:13:09Z</time>
      </trkpt>
      <trkpt lat="45.59008" lon="0.66768">
        <ele>210.666015625</ele>
        <time>2011-03-06T10:13:14Z</time>
      </trkpt>
      <trkpt lat="45.59008" lon="0.66787">
        <ele>211.14672851562</ele>
        <time>2011-03-06T10:13:17Z</time>
      </trkpt>
      <trkpt lat="45.59008" lon="0.66824">
        <ele>212.58862304688</ele>
        <time>2011-03-06T10:13:23Z</time>
      </trkpt>
      <trkpt lat="45.59013" lon="0.6689">
        <ele>211.62744140625</ele>
        <time>2011-03-06T10:13:35Z</time>
      </trkpt>
      <trkpt lat="45.59013" lon="0.66896">
        <ele>210.666015625</ele>
        <time>2011-03-06T10:13:36Z</time>
      </trkpt>
      <trkpt lat="45.59005" lon="0.66928">
        <ele>208.74340820312</ele>
        <time>2011-03-06T10:13:45Z</time>
      </trkpt>
      <trkpt lat="45.59006" lon="0.66928">
        <ele>206.34008789062</ele>
        <time>2011-03-06T10:13:47Z</time>
      </trkpt>
      <trkpt lat="45.59011" lon="0.66926">
        <ele>205.37878417969</ele>
        <time>2011-03-06T10:13:50Z</time>
      </trkpt>
      <trkpt lat="45.59019" lon="0.66931">
        <ele>206.34008789062</ele>
        <time>2011-03-06T10:13:58Z</time>
      </trkpt>
      <trkpt lat="45.5902" lon="0.66932">
        <ele>207.30139160156</ele>
        <time>2011-03-06T10:14:12Z</time>
      </trkpt>
      <trkpt lat="45.59025" lon="0.6693">
        <ele>207.78210449219</ele>
        <time>2011-03-06T10:14:16Z</time>
      </trkpt>
      <trkpt lat="45.59059" lon="0.66906">
        <ele>207.30139160156</ele>
        <time>2011-03-06T10:14:30Z</time>
      </trkpt>
      <trkpt lat="45.591" lon="0.66894">
        <ele>207.30139160156</ele>
        <time>2011-03-06T10:14:45Z</time>
      </trkpt>
      <trkpt lat="45.59135" lon="0.66927">
        <ele>208.26281738281</ele>
        <time>2011-03-06T10:14:58Z</time>
      </trkpt>
      <trkpt lat="45.59146" lon="0.6699">
        <ele>205.85949707031</ele>
        <time>2011-03-06T10:15:11Z</time>
      </trkpt>
      <trkpt lat="45.59147" lon="0.67063">
        <ele>206.34008789062</ele>
        <time>2011-03-06T10:15:25Z</time>
      </trkpt>
      <trkpt lat="45.59141" lon="0.67088">
        <ele>206.34008789062</ele>
        <time>2011-03-06T10:15:30Z</time>
      </trkpt>
      <trkpt lat="45.59125" lon="0.6715">
        <ele>208.74340820312</ele>
        <time>2011-03-06T10:15:43Z</time>
      </trkpt>
      <trkpt lat="45.59119" lon="0.67173">
        <ele>210.18542480469</ele>
        <time>2011-03-06T10:15:47Z</time>
      </trkpt>
      <trkpt lat="45.59104" lon="0.67215">
        <ele>213.0693359375</ele>
        <time>2011-03-06T10:15:55Z</time>
      </trkpt>
      <trkpt lat="45.59111" lon="0.67224">
        <ele>213.0693359375</ele>
        <time>2011-03-06T10:16:00Z</time>
      </trkpt>
      <trkpt lat="45.59109" lon="0.67237">
        <ele>212.58862304688</ele>
        <time>2011-03-06T10:16:07Z</time>
      </trkpt>
      <trkpt lat="45.59086" lon="0.67291">
        <ele>212.10803222656</ele>
        <time>2011-03-06T10:16:26Z</time>
      </trkpt>
      <trkpt lat="45.59063" lon="0.67354">
        <ele>211.14672851562</ele>
        <time>2011-03-06T10:16:43Z</time>
      </trkpt>
      <trkpt lat="45.59044" lon="0.67387">
        <ele>211.62744140625</ele>
        <time>2011-03-06T10:16:53Z</time>
      </trkpt>
      <trkpt lat="45.59025" lon="0.67412">
        <ele>212.10803222656</ele>
        <time>2011-03-06T10:17:05Z</time>
      </trkpt>
      <trkpt lat="45.59011" lon="0.67443">
        <ele>214.03063964844</ele>
        <time>2011-03-06T10:17:12Z</time>
      </trkpt>
      <trkpt lat="45.59021" lon="0.67454">
        <ele>212.58862304688</ele>
        <time>2011-03-06T10:17:17Z</time>
      </trkpt>
      <trkpt lat="45.59024" lon="0.67458">
        <ele>212.10803222656</ele>
        <time>2011-03-06T10:17:19Z</time>
      </trkpt>
      <trkpt lat="45.59039" lon="0.67464">
        <ele>211.62744140625</ele>
        <time>2011-03-06T10:17:26Z</time>
      </trkpt>
      <trkpt lat="45.59043" lon="0.67474">
        <ele>211.62744140625</ele>
        <time>2011-03-06T10:17:30Z</time>
      </trkpt>
      <trkpt lat="45.59046" lon="0.67517">
        <ele>210.18542480469</ele>
        <time>2011-03-06T10:17:40Z</time>
      </trkpt>
      <trkpt lat="45.59046" lon="0.67534">
        <ele>210.666015625</ele>
        <time>2011-03-06T10:17:43Z</time>
      </trkpt>
      <trkpt lat="45.59056" lon="0.67551">
        <ele>210.666015625</ele>
        <time>2011-03-06T10:17:47Z</time>
      </trkpt>
      <trkpt lat="45.59072" lon="0.67568">
        <ele>209.70483398438</ele>
        <time>2011-03-06T10:17:51Z</time>
      </trkpt>
      <trkpt lat="45.59122" lon="0.67566">
        <ele>209.70483398438</ele>
        <time>2011-03-06T10:18:00Z</time>
      </trkpt>
      <trkpt lat="45.59134" lon="0.67566">
        <ele>210.18542480469</ele>
        <time>2011-03-06T10:18:02Z</time>
      </trkpt>
      <trkpt lat="45.59159" lon="0.67588">
        <ele>210.18542480469</ele>
        <time>2011-03-06T10:18:07Z</time>
      </trkpt>
      <trkpt lat="45.59177" lon="0.67614">
        <ele>210.666015625</ele>
        <time>2011-03-06T10:18:11Z</time>
      </trkpt>
      <trkpt lat="45.59211" lon="0.67664">
        <ele>210.666015625</ele>
        <time>2011-03-06T10:18:19Z</time>
      </trkpt>
      <trkpt lat="45.59239" lon="0.67682">
        <ele>209.22412109375</ele>
        <time>2011-03-06T10:18:24Z</time>
      </trkpt>
      <trkpt lat="45.59252" lon="0.67684">
        <ele>208.74340820312</ele>
        <time>2011-03-06T10:18:26Z</time>
      </trkpt>
      <trkpt lat="45.59271" lon="0.67695">
        <ele>208.74340820312</ele>
        <time>2011-03-06T10:18:29Z</time>
      </trkpt>
      <trkpt lat="45.59315" lon="0.67737">
        <ele>208.26281738281</ele>
        <time>2011-03-06T10:18:37Z</time>
      </trkpt>
      <trkpt lat="45.59325" lon="0.67742">
        <ele>208.26281738281</ele>
        <time>2011-03-06T10:18:39Z</time>
      </trkpt>
      <trkpt lat="45.59331" lon="0.67761">
        <ele>209.22412109375</ele>
        <time>2011-03-06T10:18:43Z</time>
      </trkpt>
      <trkpt lat="45.59344" lon="0.67774">
        <ele>206.82067871094</ele>
        <time>2011-03-06T10:18:49Z</time>
      </trkpt>
      <trkpt lat="45.59348" lon="0.6778">
        <ele>206.82067871094</ele>
        <time>2011-03-06T10:18:51Z</time>
      </trkpt>
      <trkpt lat="45.59372" lon="0.67755">
        <ele>206.34008789062</ele>
        <time>2011-03-06T10:18:58Z</time>
      </trkpt>
      <trkpt lat="45.59388" lon="0.67738">
        <ele>205.85949707031</ele>
        <time>2011-03-06T10:19:01Z</time>
      </trkpt>
      <trkpt lat="45.59419" lon="0.67725">
        <ele>206.34008789062</ele>
        <time>2011-03-06T10:19:06Z</time>
      </trkpt>
      <trkpt lat="45.59448" lon="0.67741">
        <ele>208.26281738281</ele>
        <time>2011-03-06T10:19:12Z</time>
      </trkpt>
      <trkpt lat="45.5945" lon="0.67749">
        <ele>206.34008789062</ele>
        <time>2011-03-06T10:19:13Z</time>
      </trkpt>
      <trkpt lat="45.59458" lon="0.67791">
        <ele>203.93688964844</ele>
        <time>2011-03-06T10:19:18Z</time>
      </trkpt>
      <trkpt lat="45.59456" lon="0.67825">
        <ele>203.93688964844</ele>
        <time>2011-03-06T10:19:22Z</time>
      </trkpt>
      <trkpt lat="45.59446" lon="0.67865">
        <ele>204.89807128906</ele>
        <time>2011-03-06T10:19:27Z</time>
      </trkpt>
      <trkpt lat="45.59431" lon="0.67905">
        <ele>204.89807128906</ele>
        <time>2011-03-06T10:19:32Z</time>
      </trkpt>
      <trkpt lat="45.59401" lon="0.6795">
        <ele>206.34008789062</ele>
        <time>2011-03-06T10:19:39Z</time>
      </trkpt>
      <trkpt lat="45.594" lon="0.67979">
        <ele>205.37878417969</ele>
        <time>2011-03-06T10:19:43Z</time>
      </trkpt>
      <trkpt lat="45.59403" lon="0.68001">
        <ele>205.37878417969</ele>
        <time>2011-03-06T10:19:47Z</time>
      </trkpt>
      <trkpt lat="45.59408" lon="0.68004">
        <ele>204.41748046875</ele>
        <time>2011-03-06T10:19:49Z</time>
      </trkpt>
      <trkpt lat="45.59431" lon="0.68013">
        <ele>204.89807128906</ele>
        <time>2011-03-06T10:19:57Z</time>
      </trkpt>
      <trkpt lat="45.59443" lon="0.68023">
        <ele>205.37878417969</ele>
        <time>2011-03-06T10:20:02Z</time>
      </trkpt>
      <trkpt lat="45.59451" lon="0.68004">
        <ele>206.34008789062</ele>
        <time>2011-03-06T10:20:07Z</time>
      </trkpt>
      <trkpt lat="45.59458" lon="0.67987">
        <ele>206.82067871094</ele>
        <time>2011-03-06T10:20:10Z</time>
      </trkpt>
      <trkpt lat="45.59469" lon="0.67967">
        <ele>207.30139160156</ele>
        <time>2011-03-06T10:20:13Z</time>
      </trkpt>
      <trkpt lat="45.59476" lon="0.67943">
        <ele>207.78210449219</ele>
        <time>2011-03-06T10:20:16Z</time>
      </trkpt>
      <trkpt lat="45.59483" lon="0.67927">
        <ele>208.26281738281</ele>
        <time>2011-03-06T10:20:18Z</time>
      </trkpt>
      <trkpt lat="45.59502" lon="0.67835">
        <ele>208.74340820312</ele>
        <time>2011-03-06T10:20:27Z</time>
      </trkpt>
      <trkpt lat="45.59517" lon="0.67797">
        <ele>208.26281738281</ele>
        <time>2011-03-06T10:20:31Z</time>
      </trkpt>
      <trkpt lat="45.59529" lon="0.67779">
        <ele>208.74340820312</ele>
        <time>2011-03-06T10:20:33Z</time>
      </trkpt>
      <trkpt lat="45.59552" lon="0.67779">
        <ele>209.70483398438</ele>
        <time>2011-03-06T10:20:37Z</time>
      </trkpt>
      <trkpt lat="45.59567" lon="0.67785">
        <ele>208.74340820312</ele>
        <time>2011-03-06T10:20:39Z</time>
      </trkpt>
      <trkpt lat="45.59616" lon="0.67767">
        <ele>209.70483398438</ele>
        <time>2011-03-06T10:20:46Z</time>
      </trkpt>
      <trkpt lat="45.59642" lon="0.67751">
        <ele>209.70483398438</ele>
        <time>2011-03-06T10:20:50Z</time>
      </trkpt>
      <trkpt lat="45.59701" lon="0.67768">
        <ele>210.18542480469</ele>
        <time>2011-03-06T10:20:58Z</time>
      </trkpt>
      <trkpt lat="45.5972" lon="0.67782">
        <ele>210.666015625</ele>
        <time>2011-03-06T10:21:01Z</time>
      </trkpt>
      <trkpt lat="45.59735" lon="0.67784">
        <ele>210.18542480469</ele>
        <time>2011-03-06T10:21:03Z</time>
      </trkpt>
      <trkpt lat="45.59771" lon="0.67759">
        <ele>207.78210449219</ele>
        <time>2011-03-06T10:21:09Z</time>
      </trkpt>
      <trkpt lat="45.59791" lon="0.67726">
        <ele>205.37878417969</ele>
        <time>2011-03-06T10:21:18Z</time>
      </trkpt>
      <trkpt lat="45.59793" lon="0.6772">
        <ele>204.89807128906</ele>
        <time>2011-03-06T10:21:20Z</time>
      </trkpt>
      <trkpt lat="45.59791" lon="0.67719">
        <ele>206.34008789062</ele>
        <time>2011-03-06T10:21:42Z</time>
      </trkpt>
      <trkpt lat="45.59793" lon="0.6772">
        <ele>206.82067871094</ele>
        <time>2011-03-06T10:22:33Z</time>
      </trkpt>
      <trkpt lat="45.59792" lon="0.67721">
        <ele>209.22412109375</ele>
        <time>2011-03-06T10:22:48Z</time>
      </trkpt>
      <trkpt lat="45.59793" lon="0.67718">
        <ele>210.18542480469</ele>
        <time>2011-03-06T10:23:44Z</time>
      </trkpt>
      <trkpt lat="45.59792" lon="0.67711">
        <ele>211.62744140625</ele>
        <time>2011-03-06T10:23:48Z</time>
      </trkpt>
      <trkpt lat="45.5979" lon="0.67707">
        <ele>211.14672851562</ele>
        <time>2011-03-06T10:24:11Z</time>
      </trkpt>
      <trkpt lat="45.59772" lon="0.67668">
        <ele>211.14672851562</ele>
        <time>2011-03-06T10:24:59Z</time>
      </trkpt>
      <trkpt lat="45.5977" lon="0.67661">
        <ele>209.70483398438</ele>
        <time>2011-03-06T10:25:24Z</time>
      </trkpt>
      <trkpt lat="45.59767" lon="0.67657">
        <ele>207.78210449219</ele>
        <time>2011-03-06T10:25:42Z</time>
      </trkpt>
      <trkpt lat="45.59767" lon="0.67657">
        <ele>206.34008789062</ele>
        <time>2011-03-06T10:26:03Z</time>
      </trkpt>
      <trkpt lat="45.59767" lon="0.67657">
        <ele>205.85949707031</ele>
        <time>2011-03-06T10:26:13Z</time>
      </trkpt>
      <trkpt lat="45.59764" lon="0.67659">
        <ele>205.85949707031</ele>
        <time>2011-03-06T10:26:17Z</time>
      </trkpt>
      <trkpt lat="45.5973" lon="0.67664">
        <ele>206.82067871094</ele>
        <time>2011-03-06T10:26:30Z</time>
      </trkpt>
      <trkpt lat="45.59719" lon="0.67657">
        <ele>206.82067871094</ele>
        <time>2011-03-06T10:26:33Z</time>
      </trkpt>
      <trkpt lat="45.59702" lon="0.67654">
        <ele>205.85949707031</ele>
        <time>2011-03-06T10:26:38Z</time>
      </trkpt>
      <trkpt lat="45.59663" lon="0.67643">
        <ele>205.37878417969</ele>
        <time>2011-03-06T10:26:49Z</time>
      </trkpt>
      <trkpt lat="45.5965" lon="0.67643">
        <ele>204.89807128906</ele>
        <time>2011-03-06T10:26:52Z</time>
      </trkpt>
      <trkpt lat="45.59637" lon="0.67637">
        <ele>205.37878417969</ele>
        <time>2011-03-06T10:26:55Z</time>
      </trkpt>
      <trkpt lat="45.59629" lon="0.67629">
        <ele>206.34008789062</ele>
        <time>2011-03-06T10:26:58Z</time>
      </trkpt>
      <trkpt lat="45.59623" lon="0.67627">
        <ele>205.85949707031</ele>
        <time>2011-03-06T10:27:00Z</time>
      </trkpt>
      <trkpt lat="45.59599" lon="0.67618">
        <ele>206.82067871094</ele>
        <time>2011-03-06T10:27:05Z</time>
      </trkpt>
      <trkpt lat="45.59586" lon="0.67607">
        <ele>206.82067871094</ele>
        <time>2011-03-06T10:27:08Z</time>
      </trkpt>
      <trkpt lat="45.59568" lon="0.67587">
        <ele>207.30139160156</ele>
        <time>2011-03-06T10:27:13Z</time>
      </trkpt>
      <trkpt lat="45.59561" lon="0.67569">
        <ele>206.82067871094</ele>
        <time>2011-03-06T10:27:17Z</time>
      </trkpt>
      <trkpt lat="45.59562" lon="0.67545">
        <ele>204.41748046875</ele>
        <time>2011-03-06T10:27:21Z</time>
      </trkpt>
      <trkpt lat="45.59568" lon="0.67534">
        <ele>204.41748046875</ele>
        <time>2011-03-06T10:27:23Z</time>
      </trkpt>
      <trkpt lat="45.59557" lon="0.675">
        <ele>206.82067871094</ele>
        <time>2011-03-06T10:27:31Z</time>
      </trkpt>
      <trkpt lat="45.59535" lon="0.67496">
        <ele>206.34008789062</ele>
        <time>2011-03-06T10:27:36Z</time>
      </trkpt>
      <trkpt lat="45.59506" lon="0.67531">
        <ele>210.18542480469</ele>
        <time>2011-03-06T10:27:46Z</time>
      </trkpt>
      <trkpt lat="45.59492" lon="0.67552">
        <ele>212.58862304688</ele>
        <time>2011-03-06T10:27:51Z</time>
      </trkpt>
      <trkpt lat="45.59471" lon="0.67563">
        <ele>211.14672851562</ele>
        <time>2011-03-06T10:27:57Z</time>
      </trkpt>
      <trkpt lat="45.59463" lon="0.6756">
        <ele>211.62744140625</ele>
        <time>2011-03-06T10:27:59Z</time>
      </trkpt>
      <trkpt lat="45.59408" lon="0.67511">
        <ele>211.62744140625</ele>
        <time>2011-03-06T10:28:13Z</time>
      </trkpt>
      <trkpt lat="45.59362" lon="0.67459">
        <ele>211.62744140625</ele>
        <time>2011-03-06T10:28:25Z</time>
      </trkpt>
      <trkpt lat="45.59349" lon="0.6744">
        <ele>211.62744140625</ele>
        <time>2011-03-06T10:28:30Z</time>
      </trkpt>
      <trkpt lat="45.59306" lon="0.67411">
        <ele>210.18542480469</ele>
        <time>2011-03-06T10:28:40Z</time>
      </trkpt>
      <trkpt lat="45.59288" lon="0.67391">
        <ele>210.18542480469</ele>
        <time>2011-03-06T10:28:44Z</time>
      </trkpt>
      <trkpt lat="45.59273" lon="0.67362">
        <ele>209.70483398438</ele>
        <time>2011-03-06T10:28:50Z</time>
      </trkpt>
      <trkpt lat="45.59288" lon="0.67315">
        <ele>208.74340820312</ele>
        <time>2011-03-06T10:28:58Z</time>
      </trkpt>
      <trkpt lat="45.59291" lon="0.6731">
        <ele>208.74340820312</ele>
        <time>2011-03-06T10:28:59Z</time>
      </trkpt>
      <trkpt lat="45.59301" lon="0.67276">
        <ele>209.22412109375</ele>
        <time>2011-03-06T10:29:05Z</time>
      </trkpt>
      <trkpt lat="45.59306" lon="0.67251">
        <ele>210.18542480469</ele>
        <time>2011-03-06T10:29:10Z</time>
      </trkpt>
      <trkpt lat="45.59303" lon="0.67234">
        <ele>211.14672851562</ele>
        <time>2011-03-06T10:29:14Z</time>
      </trkpt>
      <trkpt lat="45.59276" lon="0.67181">
        <ele>213.0693359375</ele>
        <time>2011-03-06T10:29:30Z</time>
      </trkpt>
      <trkpt lat="45.59242" lon="0.6718">
        <ele>213.0693359375</ele>
        <time>2011-03-06T10:29:43Z</time>
      </trkpt>
      <trkpt lat="45.59188" lon="0.67205">
        <ele>213.0693359375</ele>
        <time>2011-03-06T10:29:59Z</time>
      </trkpt>
      <trkpt lat="45.59114" lon="0.67229">
        <ele>212.10803222656</ele>
        <time>2011-03-06T10:30:18Z</time>
      </trkpt>
      <trkpt lat="45.59108" lon="0.67226">
        <ele>211.14672851562</ele>
        <time>2011-03-06T10:30:24Z</time>
      </trkpt>
      <trkpt lat="45.59106" lon="0.67236">
        <ele>211.14672851562</ele>
        <time>2011-03-06T10:30:33Z</time>
      </trkpt>
      <trkpt lat="45.59105" lon="0.67236">
        <ele>211.14672851562</ele>
        <time>2011-03-06T10:30:35Z</time>
      </trkpt>
      <trkpt lat="45.59093" lon="0.67232">
        <ele>210.666015625</ele>
        <time>2011-03-06T10:30:41Z</time>
      </trkpt>
      <trkpt lat="45.59059" lon="0.67256">
        <ele>212.58862304688</ele>
        <time>2011-03-06T10:30:53Z</time>
      </trkpt>
      <trkpt lat="45.59044" lon="0.67293">
        <ele>212.58862304688</ele>
        <time>2011-03-06T10:31:02Z</time>
      </trkpt>
      <trkpt lat="45.59026" lon="0.67342">
        <ele>212.58862304688</ele>
        <time>2011-03-06T10:31:12Z</time>
      </trkpt>
      <trkpt lat="45.58995" lon="0.67429">
        <ele>212.58862304688</ele>
        <time>2011-03-06T10:31:27Z</time>
      </trkpt>
      <trkpt lat="45.58989" lon="0.67449">
        <ele>212.58862304688</ele>
        <time>2011-03-06T10:31:30Z</time>
      </trkpt>
      <trkpt lat="45.58983" lon="0.67557">
        <ele>214.03063964844</ele>
        <time>2011-03-06T10:31:45Z</time>
      </trkpt>
      <trkpt lat="45.59004" lon="0.67687">
        <ele>219.31799316406</ele>
        <time>2011-03-06T10:32:03Z</time>
      </trkpt>
      <trkpt lat="45.59022" lon="0.67812">
        <ele>222.20178222656</ele>
        <time>2011-03-06T10:32:22Z</time>
      </trkpt>
      <trkpt lat="45.59009" lon="0.67916">
        <ele>224.60522460938</ele>
        <time>2011-03-06T10:32:35Z</time>
      </trkpt>
      <trkpt lat="45.59" lon="0.67962">
        <ele>226.52783203125</ele>
        <time>2011-03-06T10:32:41Z</time>
      </trkpt>
      <trkpt lat="45.58983" lon="0.67977">
        <ele>227.00854492188</ele>
        <time>2011-03-06T10:32:46Z</time>
      </trkpt>
      <trkpt lat="45.58959" lon="0.67971">
        <ele>226.04711914062</ele>
        <time>2011-03-06T10:32:50Z</time>
      </trkpt>
      <trkpt lat="45.58944" lon="0.67969">
        <ele>225.0859375</ele>
        <time>2011-03-06T10:32:52Z</time>
      </trkpt>
      <trkpt lat="45.589" lon="0.67996">
        <ele>226.52783203125</ele>
        <time>2011-03-06T10:32:59Z</time>
      </trkpt>
      <trkpt lat="45.58874" lon="0.68003">
        <ele>228.45043945312</ele>
        <time>2011-03-06T10:33:04Z</time>
      </trkpt>
      <trkpt lat="45.58828" lon="0.6799">
        <ele>232.29577636719</ele>
        <time>2011-03-06T10:33:13Z</time>
      </trkpt>
      <trkpt lat="45.58812" lon="0.68002">
        <ele>234.69909667969</ele>
        <time>2011-03-06T10:33:18Z</time>
      </trkpt>
      <trkpt lat="45.58808" lon="0.68018">
        <ele>235.66027832031</ele>
        <time>2011-03-06T10:33:21Z</time>
      </trkpt>
      <trkpt lat="45.58791" lon="0.68034">
        <ele>236.14099121094</ele>
        <time>2011-03-06T10:33:26Z</time>
      </trkpt>
      <trkpt lat="45.58776" lon="0.68044">
        <ele>235.1796875</ele>
        <time>2011-03-06T10:33:31Z</time>
      </trkpt>
      <trkpt lat="45.5877" lon="0.68052">
        <ele>234.69909667969</ele>
        <time>2011-03-06T10:33:33Z</time>
      </trkpt>
      <trkpt lat="45.58749" lon="0.68096">
        <ele>230.373046875</ele>
        <time>2011-03-06T10:33:39Z</time>
      </trkpt>
      <trkpt lat="45.58726" lon="0.68126">
        <ele>227.9697265625</ele>
        <time>2011-03-06T10:33:43Z</time>
      </trkpt>
      <trkpt lat="45.58708" lon="0.68182">
        <ele>222.68249511719</ele>
        <time>2011-03-06T10:33:53Z</time>
      </trkpt>
      <trkpt lat="45.58684" lon="0.68307">
        <ele>223.64379882812</ele>
        <time>2011-03-06T10:34:06Z</time>
      </trkpt>
      <trkpt lat="45.58674" lon="0.68342">
        <ele>225.56652832031</ele>
        <time>2011-03-06T10:34:12Z</time>
      </trkpt>
      <trkpt lat="45.58672" lon="0.68358">
        <ele>225.56652832031</ele>
        <time>2011-03-06T10:34:16Z</time>
      </trkpt>
      <trkpt lat="45.58658" lon="0.68374">
        <ele>225.0859375</ele>
        <time>2011-03-06T10:34:20Z</time>
      </trkpt>
      <trkpt lat="45.58599" lon="0.68387">
        <ele>223.64379882812</ele>
        <time>2011-03-06T10:34:32Z</time>
      </trkpt>
      <trkpt lat="45.5858" lon="0.68391">
        <ele>222.20178222656</ele>
        <time>2011-03-06T10:34:35Z</time>
      </trkpt>
      <trkpt lat="45.58472" lon="0.68396">
        <ele>211.62744140625</ele>
        <time>2011-03-06T10:34:48Z</time>
      </trkpt>
      <trkpt lat="45.58453" lon="0.68395">
        <ele>210.666015625</ele>
        <time>2011-03-06T10:34:50Z</time>
      </trkpt>
      <trkpt lat="45.58374" lon="0.68403">
        <ele>210.666015625</ele>
        <time>2011-03-06T10:35:00Z</time>
      </trkpt>
      <trkpt lat="45.58368" lon="0.6842">
        <ele>211.14672851562</ele>
        <time>2011-03-06T10:35:05Z</time>
      </trkpt>
      <trkpt lat="45.58408" lon="0.68464">
        <ele>213.55004882812</ele>
        <time>2011-03-06T10:35:19Z</time>
      </trkpt>
      <trkpt lat="45.5848" lon="0.68538">
        <ele>217.39538574219</ele>
        <time>2011-03-06T10:35:41Z</time>
      </trkpt>
      <trkpt lat="45.58516" lon="0.68577">
        <ele>220.75988769531</ele>
        <time>2011-03-06T10:35:52Z</time>
      </trkpt>
      <trkpt lat="45.58536" lon="0.68597">
        <ele>223.16320800781</ele>
        <time>2011-03-06T10:35:58Z</time>
      </trkpt>
      <trkpt lat="45.58522" lon="0.68627">
        <ele>225.56652832031</ele>
        <time>2011-03-06T10:36:06Z</time>
      </trkpt>
      <trkpt lat="45.58459" lon="0.68691">
        <ele>225.0859375</ele>
        <time>2011-03-06T10:36:23Z</time>
      </trkpt>
      <trkpt lat="45.58412" lon="0.68747">
        <ele>221.72119140625</ele>
        <time>2011-03-06T10:36:33Z</time>
      </trkpt>
      <trkpt lat="45.58315" lon="0.68857">
        <ele>215.47265625</ele>
        <time>2011-03-06T10:36:46Z</time>
      </trkpt>
      <trkpt lat="45.58265" lon="0.68953">
        <ele>211.14672851562</ele>
        <time>2011-03-06T10:36:55Z</time>
      </trkpt>
      <trkpt lat="45.58272" lon="0.68999">
        <ele>209.70483398438</ele>
        <time>2011-03-06T10:37:01Z</time>
      </trkpt>
      <trkpt lat="45.58282" lon="0.6901">
        <ele>209.22412109375</ele>
        <time>2011-03-06T10:37:03Z</time>
      </trkpt>
      <trkpt lat="45.58297" lon="0.69025">
        <ele>208.74340820312</ele>
        <time>2011-03-06T10:37:06Z</time>
      </trkpt>
      <trkpt lat="45.58315" lon="0.69037">
        <ele>207.78210449219</ele>
        <time>2011-03-06T10:37:10Z</time>
      </trkpt>
      <trkpt lat="45.58305" lon="0.69084">
        <ele>206.82067871094</ele>
        <time>2011-03-06T10:37:18Z</time>
      </trkpt>
      <trkpt lat="45.58301" lon="0.69097">
        <ele>207.78210449219</ele>
        <time>2011-03-06T10:37:20Z</time>
      </trkpt>
      <trkpt lat="45.58293" lon="0.6914">
        <ele>211.14672851562</ele>
        <time>2011-03-06T10:37:28Z</time>
      </trkpt>
      <trkpt lat="45.58287" lon="0.69158">
        <ele>213.0693359375</ele>
        <time>2011-03-06T10:37:34Z</time>
      </trkpt>
      <trkpt lat="45.58277" lon="0.69194">
        <ele>216.43395996094</ele>
        <time>2011-03-06T10:37:43Z</time>
      </trkpt>
      <trkpt lat="45.58267" lon="0.69263">
        <ele>220.27917480469</ele>
        <time>2011-03-06T10:37:57Z</time>
      </trkpt>
      <trkpt lat="45.58253" lon="0.69321">
        <ele>229.41174316406</ele>
        <time>2011-03-06T10:38:09Z</time>
      </trkpt>
      <trkpt lat="45.58253" lon="0.69325">
        <ele>229.89233398438</ele>
        <time>2011-03-06T10:38:10Z</time>
      </trkpt>
      <trkpt lat="45.58264" lon="0.69365">
        <ele>236.14099121094</ele>
        <time>2011-03-06T10:38:21Z</time>
      </trkpt>
      <trkpt lat="45.58269" lon="0.69385">
        <ele>239.02490234375</ele>
        <time>2011-03-06T10:38:27Z</time>
      </trkpt>
      <trkpt lat="45.58273" lon="0.69403">
        <ele>239.50549316406</ele>
        <time>2011-03-06T10:38:32Z</time>
      </trkpt>
      <trkpt lat="45.58254" lon="0.6943">
        <ele>240.46704101562</ele>
        <time>2011-03-06T10:38:44Z</time>
      </trkpt>
      <trkpt lat="45.58236" lon="0.69414">
        <ele>240.46704101562</ele>
        <time>2011-03-06T10:38:56Z</time>
      </trkpt>
      <trkpt lat="45.58219" lon="0.69412">
        <ele>240.94763183594</ele>
        <time>2011-03-06T10:39:09Z</time>
      </trkpt>
      <trkpt lat="45.58172" lon="0.69405">
        <ele>241.90893554688</ele>
        <time>2011-03-06T10:39:29Z</time>
      </trkpt>
      <trkpt lat="45.58167" lon="0.69406">
        <ele>241.90893554688</ele>
        <time>2011-03-06T10:39:31Z</time>
      </trkpt>
      <trkpt lat="45.58167" lon="0.69414">
        <ele>243.83154296875</ele>
        <time>2011-03-06T10:39:36Z</time>
      </trkpt>
      <trkpt lat="45.58182" lon="0.69427">
        <ele>243.83154296875</ele>
        <time>2011-03-06T10:39:53Z</time>
      </trkpt>
      <trkpt lat="45.58199" lon="0.6945">
        <ele>240.46704101562</ele>
        <time>2011-03-06T10:40:01Z</time>
      </trkpt>
      <trkpt lat="45.58208" lon="0.69466">
        <ele>239.98620605469</ele>
        <time>2011-03-06T10:40:04Z</time>
      </trkpt>
      <trkpt lat="45.58245" lon="0.69523">
        <ele>235.1796875</ele>
        <time>2011-03-06T10:40:12Z</time>
      </trkpt>
      <trkpt lat="45.5826" lon="0.69551">
        <ele>235.66027832031</ele>
        <time>2011-03-06T10:40:22Z</time>
      </trkpt>
      <trkpt lat="45.58282" lon="0.69582">
        <ele>235.1796875</ele>
        <time>2011-03-06T10:40:35Z</time>
      </trkpt>
      <trkpt lat="45.58314" lon="0.69615">
        <ele>238.06359863281</ele>
        <time>2011-03-06T10:40:51Z</time>
      </trkpt>
      <trkpt lat="45.58359" lon="0.69648">
        <ele>239.98620605469</ele>
        <time>2011-03-06T10:41:08Z</time>
      </trkpt>
      <trkpt lat="45.58397" lon="0.69665">
        <ele>240.94763183594</ele>
        <time>2011-03-06T10:41:24Z</time>
      </trkpt>
      <trkpt lat="45.58431" lon="0.69685">
        <ele>238.06359863281</ele>
        <time>2011-03-06T10:41:38Z</time>
      </trkpt>
      <trkpt lat="45.58441" lon="0.69695">
        <ele>236.62170410156</ele>
        <time>2011-03-06T10:41:41Z</time>
      </trkpt>
      <trkpt lat="45.58473" lon="0.69719">
        <ele>233.25708007812</ele>
        <time>2011-03-06T10:41:49Z</time>
      </trkpt>
      <trkpt lat="45.58469" lon="0.6973">
        <ele>233.25708007812</ele>
        <time>2011-03-06T10:41:54Z</time>
      </trkpt>
      <trkpt lat="45.58437" lon="0.69753">
        <ele>239.02490234375</ele>
        <time>2011-03-06T10:42:08Z</time>
      </trkpt>
      <trkpt lat="45.58384" lon="0.69781">
        <ele>243.35083007812</ele>
        <time>2011-03-06T10:42:24Z</time>
      </trkpt>
      <trkpt lat="45.58308" lon="0.6983">
        <ele>244.31225585938</ele>
        <time>2011-03-06T10:42:44Z</time>
      </trkpt>
      <trkpt lat="45.5821" lon="0.69894">
        <ele>247.19604492188</ele>
        <time>2011-03-06T10:43:08Z</time>
      </trkpt>
      <trkpt lat="45.58159" lon="0.69926">
        <ele>252.4833984375</ele>
        <time>2011-03-06T10:43:22Z</time>
      </trkpt>
      <trkpt lat="45.58159" lon="0.6996">
        <ele>252.4833984375</ele>
        <time>2011-03-06T10:43:32Z</time>
      </trkpt>
      <trkpt lat="45.58158" lon="0.69967">
        <ele>252.4833984375</ele>
        <time>2011-03-06T10:43:35Z</time>
      </trkpt>
      <trkpt lat="45.58147" lon="0.7001">
        <ele>254.40600585938</ele>
        <time>2011-03-06T10:43:52Z</time>
      </trkpt>
      <trkpt lat="45.58119" lon="0.70076">
        <ele>255.36730957031</ele>
        <time>2011-03-06T10:44:09Z</time>
      </trkpt>
      <trkpt lat="45.58102" lon="0.70109">
        <ele>254.40600585938</ele>
        <time>2011-03-06T10:44:23Z</time>
      </trkpt>
      <trkpt lat="45.58083" lon="0.70127">
        <ele>256.80932617188</ele>
        <time>2011-03-06T10:44:50Z</time>
      </trkpt>
      <trkpt lat="45.58045" lon="0.70181">
        <ele>255.36730957031</ele>
        <time>2011-03-06T10:45:05Z</time>
      </trkpt>
      <trkpt lat="45.58022" lon="0.70256">
        <ele>256.80932617188</ele>
        <time>2011-03-06T10:45:20Z</time>
      </trkpt>
      <trkpt lat="45.57993" lon="0.70319">
        <ele>257.77075195312</ele>
        <time>2011-03-06T10:45:34Z</time>
      </trkpt>
      <trkpt lat="45.57968" lon="0.7031">
        <ele>258.73193359375</ele>
        <time>2011-03-06T10:45:42Z</time>
      </trkpt>
      <trkpt lat="45.57949" lon="0.70293">
        <ele>262.5771484375</ele>
        <time>2011-03-06T10:45:48Z</time>
      </trkpt>
      <trkpt lat="45.57901" lon="0.70252">
        <ele>270.74841308594</ele>
        <time>2011-03-06T10:46:02Z</time>
      </trkpt>
      <trkpt lat="45.57832" lon="0.70176">
        <ele>274.11303710938</ele>
        <time>2011-03-06T10:46:24Z</time>
      </trkpt>
      <trkpt lat="45.57809" lon="0.70156">
        <ele>272.67114257812</ele>
        <time>2011-03-06T10:46:30Z</time>
      </trkpt>
      <trkpt lat="45.57718" lon="0.70133">
        <ele>267.86450195312</ele>
        <time>2011-03-06T10:46:47Z</time>
      </trkpt>
      <trkpt lat="45.57626" lon="0.70145">
        <ele>265.46130371094</ele>
        <time>2011-03-06T10:47:04Z</time>
      </trkpt>
      <trkpt lat="45.57552" lon="0.70179">
        <ele>265.94189453125</ele>
        <time>2011-03-06T10:47:18Z</time>
      </trkpt>
      <trkpt lat="45.57529" lon="0.70184">
        <ele>266.90319824219</ele>
        <time>2011-03-06T10:47:24Z</time>
      </trkpt>
      <trkpt lat="45.57528" lon="0.70238">
        <ele>268.34509277344</ele>
        <time>2011-03-06T10:47:34Z</time>
      </trkpt>
      <trkpt lat="45.57536" lon="0.7031">
        <ele>265.94189453125</ele>
        <time>2011-03-06T10:47:41Z</time>
      </trkpt>
      <trkpt lat="45.57539" lon="0.70332">
        <ele>264.98059082031</ele>
        <time>2011-03-06T10:47:43Z</time>
      </trkpt>
      <trkpt lat="45.57529" lon="0.7037">
        <ele>263.05786132812</ele>
        <time>2011-03-06T10:47:47Z</time>
      </trkpt>
      <trkpt lat="45.57521" lon="0.70385">
        <ele>261.61596679688</ele>
        <time>2011-03-06T10:47:49Z</time>
      </trkpt>
      <trkpt lat="45.57519" lon="0.70417">
        <ele>260.65454101562</ele>
        <time>2011-03-06T10:47:53Z</time>
      </trkpt>
      <trkpt lat="45.57502" lon="0.70451">
        <ele>254.88659667969</ele>
        <time>2011-03-06T10:47:58Z</time>
      </trkpt>
      <trkpt lat="45.57459" lon="0.7046">
        <ele>254.40600585938</ele>
        <time>2011-03-06T10:48:07Z</time>
      </trkpt>
      <trkpt lat="45.57416" lon="0.70476">
        <ele>253.44470214844</ele>
        <time>2011-03-06T10:48:14Z</time>
      </trkpt>
      <trkpt lat="45.57392" lon="0.7047">
        <ele>252.96398925781</ele>
        <time>2011-03-06T10:48:18Z</time>
      </trkpt>
      <trkpt lat="45.57363" lon="0.70464">
        <ele>252.4833984375</ele>
        <time>2011-03-06T10:48:23Z</time>
      </trkpt>
      <trkpt lat="45.57339" lon="0.70449">
        <ele>251.52209472656</ele>
        <time>2011-03-06T10:48:28Z</time>
      </trkpt>
      <trkpt lat="45.57303" lon="0.70435">
        <ele>252.4833984375</ele>
        <time>2011-03-06T10:48:34Z</time>
      </trkpt>
      <trkpt lat="45.5728" lon="0.70428">
        <ele>253.44470214844</ele>
        <time>2011-03-06T10:48:38Z</time>
      </trkpt>
      <trkpt lat="45.57267" lon="0.70421">
        <ele>253.92541503906</ele>
        <time>2011-03-06T10:48:41Z</time>
      </trkpt>
      <trkpt lat="45.57285" lon="0.7046">
        <ele>251.52209472656</ele>
        <time>2011-03-06T10:48:48Z</time>
      </trkpt>
      <trkpt lat="45.57303" lon="0.70519">
        <ele>249.11877441406</ele>
        <time>2011-03-06T10:48:54Z</time>
      </trkpt>
      <trkpt lat="45.57307" lon="0.70549">
        <ele>248.63818359375</ele>
        <time>2011-03-06T10:48:57Z</time>
      </trkpt>
      <trkpt lat="45.57299" lon="0.70594">
        <ele>246.23486328125</ele>
        <time>2011-03-06T10:49:01Z</time>
      </trkpt>
      <trkpt lat="45.57296" lon="0.70634">
        <ele>244.31225585938</ele>
        <time>2011-03-06T10:49:04Z</time>
      </trkpt>
      <trkpt lat="45.5728" lon="0.70745">
        <ele>239.02490234375</ele>
        <time>2011-03-06T10:49:11Z</time>
      </trkpt>
      <trkpt lat="45.57249" lon="0.70816">
        <ele>235.1796875</ele>
        <time>2011-03-06T10:49:16Z</time>
      </trkpt>
      <trkpt lat="45.57221" lon="0.70846">
        <ele>230.373046875</ele>
        <time>2011-03-06T10:49:20Z</time>
      </trkpt>
      <trkpt lat="45.57202" lon="0.70848">
        <ele>228.93115234375</ele>
        <time>2011-03-06T10:49:22Z</time>
      </trkpt>
      <trkpt lat="45.57166" lon="0.70827">
        <ele>224.60522460938</ele>
        <time>2011-03-06T10:49:29Z</time>
      </trkpt>
      <trkpt lat="45.57166" lon="0.70827">
        <ele>224.60522460938</ele>
        <time>2011-03-06T10:50:10Z</time>
      </trkpt>
      <trkpt lat="45.57163" lon="0.70827">
        <ele>223.64379882812</ele>
        <time>2011-03-06T10:50:12Z</time>
      </trkpt>
      <trkpt lat="45.57135" lon="0.70847">
        <ele>219.31799316406</ele>
        <time>2011-03-06T10:50:22Z</time>
      </trkpt>
      <trkpt lat="45.57113" lon="0.70898">
        <ele>216.43395996094</ele>
        <time>2011-03-06T10:50:31Z</time>
      </trkpt>
      <trkpt lat="45.57121" lon="0.70932">
        <ele>211.14672851562</ele>
        <time>2011-03-06T10:50:39Z</time>
      </trkpt>
      <trkpt lat="45.57121" lon="0.70941">
        <ele>209.70483398438</ele>
        <time>2011-03-06T10:50:43Z</time>
      </trkpt>
      <trkpt lat="45.57112" lon="0.70948">
        <ele>208.74340820312</ele>
        <time>2011-03-06T10:50:47Z</time>
      </trkpt>
      <trkpt lat="45.57064" lon="0.70951">
        <ele>206.34008789062</ele>
        <time>2011-03-06T10:50:58Z</time>
      </trkpt>
      <trkpt lat="45.57024" lon="0.70934">
        <ele>206.82067871094</ele>
        <time>2011-03-06T10:51:06Z</time>
      </trkpt>
      <trkpt lat="45.57002" lon="0.70937">
        <ele>205.85949707031</ele>
        <time>2011-03-06T10:51:11Z</time>
      </trkpt>
      <trkpt lat="45.56951" lon="0.70976">
        <ele>204.41748046875</ele>
        <time>2011-03-06T10:51:23Z</time>
      </trkpt>
      <trkpt lat="45.56919" lon="0.70989">
        <ele>203.45617675781</ele>
        <time>2011-03-06T10:51:30Z</time>
      </trkpt>
      <trkpt lat="45.56899" lon="0.71013">
        <ele>203.93688964844</ele>
        <time>2011-03-06T10:51:34Z</time>
      </trkpt>
      <trkpt lat="45.56886" lon="0.71041">
        <ele>205.37878417969</ele>
        <time>2011-03-06T10:51:38Z</time>
      </trkpt>
      <trkpt lat="45.56876" lon="0.71049">
        <ele>206.34008789062</ele>
        <time>2011-03-06T10:51:41Z</time>
      </trkpt>
      <trkpt lat="45.56866" lon="0.71054">
        <ele>206.34008789062</ele>
        <time>2011-03-06T10:51:43Z</time>
      </trkpt>
      <trkpt lat="45.56839" lon="0.71056">
        <ele>209.22412109375</ele>
        <time>2011-03-06T10:51:48Z</time>
      </trkpt>
      <trkpt lat="45.56801" lon="0.71058">
        <ele>212.10803222656</ele>
        <time>2011-03-06T10:51:55Z</time>
      </trkpt>
      <trkpt lat="45.56707" lon="0.71028">
        <ele>206.82067871094</ele>
        <time>2011-03-06T10:52:09Z</time>
      </trkpt>
      <trkpt lat="45.56644" lon="0.71005">
        <ele>203.45617675781</ele>
        <time>2011-03-06T10:52:17Z</time>
      </trkpt>
      <trkpt lat="45.56613" lon="0.7102">
        <ele>202.97546386719</ele>
        <time>2011-03-06T10:52:22Z</time>
      </trkpt>
      <trkpt lat="45.56605" lon="0.71033">
        <ele>203.45617675781</ele>
        <time>2011-03-06T10:52:24Z</time>
      </trkpt>
      <trkpt lat="45.56574" lon="0.71033">
        <ele>204.41748046875</ele>
        <time>2011-03-06T10:52:31Z</time>
      </trkpt>
      <trkpt lat="45.56566" lon="0.71024">
        <ele>205.37878417969</ele>
        <time>2011-03-06T10:52:33Z</time>
      </trkpt>
      <trkpt lat="45.56533" lon="0.7102">
        <ele>207.30139160156</ele>
        <time>2011-03-06T10:52:41Z</time>
      </trkpt>
      <trkpt lat="45.56482" lon="0.71065">
        <ele>212.10803222656</ele>
        <time>2011-03-06T10:52:58Z</time>
      </trkpt>
      <trkpt lat="45.5648" lon="0.71068">
        <ele>212.58862304688</ele>
        <time>2011-03-06T10:52:59Z</time>
      </trkpt>
      <trkpt lat="45.56473" lon="0.71077">
        <ele>214.03063964844</ele>
        <time>2011-03-06T10:53:02Z</time>
      </trkpt>
      <trkpt lat="45.56463" lon="0.71079">
        <ele>214.51123046875</ele>
        <time>2011-03-06T10:53:06Z</time>
      </trkpt>
      <trkpt lat="45.56452" lon="0.71086">
        <ele>215.95324707031</ele>
        <time>2011-03-06T10:53:11Z</time>
      </trkpt>
      <trkpt lat="45.56435" lon="0.71101">
        <ele>217.39538574219</ele>
        <time>2011-03-06T10:53:19Z</time>
      </trkpt>
      <trkpt lat="45.56429" lon="0.71107">
        <ele>223.16320800781</ele>
        <time>2011-03-06T10:53:22Z</time>
      </trkpt>
      <trkpt lat="45.56406" lon="0.71136">
        <ele>225.0859375</ele>
        <time>2011-03-06T10:53:34Z</time>
      </trkpt>
      <trkpt lat="45.56356" lon="0.71131">
        <ele>228.93115234375</ele>
        <time>2011-03-06T10:53:49Z</time>
      </trkpt>
      <trkpt lat="45.56316" lon="0.71126">
        <ele>228.93115234375</ele>
        <time>2011-03-06T10:54:01Z</time>
      </trkpt>
      <trkpt lat="45.56268" lon="0.71109">
        <ele>227.00854492188</ele>
        <time>2011-03-06T10:54:16Z</time>
      </trkpt>
      <trkpt lat="45.56259" lon="0.71105">
        <ele>226.04711914062</ele>
        <time>2011-03-06T10:54:19Z</time>
      </trkpt>
      <trkpt lat="45.5625" lon="0.71095">
        <ele>226.04711914062</ele>
        <time>2011-03-06T10:54:23Z</time>
      </trkpt>
      <trkpt lat="45.56207" lon="0.7108">
        <ele>230.373046875</ele>
        <time>2011-03-06T10:54:36Z</time>
      </trkpt>
      <trkpt lat="45.56166" lon="0.71049">
        <ele>232.77648925781</ele>
        <time>2011-03-06T10:54:49Z</time>
      </trkpt>
      <trkpt lat="45.56146" lon="0.71038">
        <ele>230.85375976562</ele>
        <time>2011-03-06T10:54:55Z</time>
      </trkpt>
      <trkpt lat="45.56111" lon="0.71004">
        <ele>234.69909667969</ele>
        <time>2011-03-06T10:55:04Z</time>
      </trkpt>
      <trkpt lat="45.56087" lon="0.70986">
        <ele>238.54431152344</ele>
        <time>2011-03-06T10:55:09Z</time>
      </trkpt>
      <trkpt lat="45.56066" lon="0.70963">
        <ele>238.06359863281</ele>
        <time>2011-03-06T10:55:18Z</time>
      </trkpt>
      <trkpt lat="45.56047" lon="0.70931">
        <ele>240.94763183594</ele>
        <time>2011-03-06T10:55:29Z</time>
      </trkpt>
      <trkpt lat="45.56011" lon="0.70864">
        <ele>242.87023925781</ele>
        <time>2011-03-06T10:55:45Z</time>
      </trkpt>
      <trkpt lat="45.55984" lon="0.70802">
        <ele>244.31225585938</ele>
        <time>2011-03-06T10:55:59Z</time>
      </trkpt>
      <trkpt lat="45.55963" lon="0.7072">
        <ele>246.71545410156</ele>
        <time>2011-03-06T10:56:15Z</time>
      </trkpt>
      <trkpt lat="45.55952" lon="0.70692">
        <ele>247.19604492188</ele>
        <time>2011-03-06T10:56:20Z</time>
      </trkpt>
      <trkpt lat="45.5593" lon="0.7064">
        <ele>243.35083007812</ele>
        <time>2011-03-06T10:56:32Z</time>
      </trkpt>
      <trkpt lat="45.55903" lon="0.70591">
        <ele>248.15759277344</ele>
        <time>2011-03-06T10:56:45Z</time>
      </trkpt>
      <trkpt lat="45.55879" lon="0.70564">
        <ele>251.52209472656</ele>
        <time>2011-03-06T10:56:57Z</time>
      </trkpt>
      <trkpt lat="45.55877" lon="0.70557">
        <ele>252.00280761719</ele>
        <time>2011-03-06T10:57:13Z</time>
      </trkpt>
      <trkpt lat="45.55877" lon="0.70556">
        <ele>251.52209472656</ele>
        <time>2011-03-06T10:57:41Z</time>
      </trkpt>
      <trkpt lat="45.5589" lon="0.70532">
        <ele>252.4833984375</ele>
        <time>2011-03-06T10:57:55Z</time>
      </trkpt>
      <trkpt lat="45.55899" lon="0.7052">
        <ele>253.44470214844</ele>
        <time>2011-03-06T10:58:02Z</time>
      </trkpt>
      <trkpt lat="45.55928" lon="0.70468">
        <ele>255.36730957031</ele>
        <time>2011-03-06T10:58:23Z</time>
      </trkpt>
      <trkpt lat="45.55946" lon="0.70437">
        <ele>256.32873535156</ele>
        <time>2011-03-06T10:58:39Z</time>
      </trkpt>
      <trkpt lat="45.55956" lon="0.70413">
        <ele>258.73193359375</ele>
        <time>2011-03-06T10:58:49Z</time>
      </trkpt>
      <trkpt lat="45.5599" lon="0.70341">
        <ele>262.5771484375</ele>
        <time>2011-03-06T10:59:04Z</time>
      </trkpt>
      <trkpt lat="45.56009" lon="0.703">
        <ele>260.17395019531</ele>
        <time>2011-03-06T10:59:15Z</time>
      </trkpt>
      <trkpt lat="45.56017" lon="0.70277">
        <ele>259.693359375</ele>
        <time>2011-03-06T10:59:18Z</time>
      </trkpt>
      <trkpt lat="45.56023" lon="0.70237">
        <ele>259.21264648438</ele>
        <time>2011-03-06T10:59:23Z</time>
      </trkpt>
      <trkpt lat="45.56024" lon="0.70197">
        <ele>258.25134277344</ele>
        <time>2011-03-06T10:59:30Z</time>
      </trkpt>
      <trkpt lat="45.56025" lon="0.70177">
        <ele>257.77075195312</ele>
        <time>2011-03-06T10:59:33Z</time>
      </trkpt>
      <trkpt lat="45.56014" lon="0.70132">
        <ele>256.80932617188</ele>
        <time>2011-03-06T10:59:39Z</time>
      </trkpt>
      <trkpt lat="45.56002" lon="0.70098">
        <ele>255.36730957031</ele>
        <time>2011-03-06T10:59:44Z</time>
      </trkpt>
      <trkpt lat="45.55982" lon="0.70067">
        <ele>254.40600585938</ele>
        <time>2011-03-06T10:59:50Z</time>
      </trkpt>
      <trkpt lat="45.55972" lon="0.70043">
        <ele>253.44470214844</ele>
        <time>2011-03-06T10:59:54Z</time>
      </trkpt>
      <trkpt lat="45.55967" lon="0.70028">
        <ele>252.00280761719</ele>
        <time>2011-03-06T10:59:56Z</time>
      </trkpt>
      <trkpt lat="45.55943" lon="0.70012">
        <ele>250.08020019531</ele>
        <time>2011-03-06T11:00:00Z</time>
      </trkpt>
      <trkpt lat="45.55903" lon="0.70018">
        <ele>247.6767578125</ele>
        <time>2011-03-06T11:00:04Z</time>
      </trkpt>
      <trkpt lat="45.55858" lon="0.69996">
        <ele>242.87023925781</ele>
        <time>2011-03-06T11:00:10Z</time>
      </trkpt>
      <trkpt lat="45.55835" lon="0.69978">
        <ele>241.42822265625</ele>
        <time>2011-03-06T11:00:14Z</time>
      </trkpt>
      <trkpt lat="45.55822" lon="0.69979">
        <ele>241.90893554688</ele>
        <time>2011-03-06T11:00:17Z</time>
      </trkpt>
      <trkpt lat="45.55804" lon="0.69975">
        <ele>239.98620605469</ele>
        <time>2011-03-06T11:00:21Z</time>
      </trkpt>
      <trkpt lat="45.55794" lon="0.69972">
        <ele>239.50549316406</ele>
        <time>2011-03-06T11:00:23Z</time>
      </trkpt>
      <trkpt lat="45.55772" lon="0.6995">
        <ele>239.98620605469</ele>
        <time>2011-03-06T11:00:35Z</time>
      </trkpt>
      <trkpt lat="45.55771" lon="0.69951">
        <ele>239.98620605469</ele>
        <time>2011-03-06T11:00:48Z</time>
      </trkpt>
      <trkpt lat="45.5576" lon="0.69974">
        <ele>240.94763183594</ele>
        <time>2011-03-06T11:00:56Z</time>
      </trkpt>
      <trkpt lat="45.5574" lon="0.69996">
        <ele>239.98620605469</ele>
        <time>2011-03-06T11:01:01Z</time>
      </trkpt>
      <trkpt lat="45.55726" lon="0.70015">
        <ele>238.54431152344</ele>
        <time>2011-03-06T11:01:04Z</time>
      </trkpt>
      <trkpt lat="45.55706" lon="0.70025">
        <ele>238.54431152344</ele>
        <time>2011-03-06T11:01:08Z</time>
      </trkpt>
      <trkpt lat="45.55693" lon="0.70021">
        <ele>237.58288574219</ele>
        <time>2011-03-06T11:01:11Z</time>
      </trkpt>
      <trkpt lat="45.55674" lon="0.70028">
        <ele>238.06359863281</ele>
        <time>2011-03-06T11:01:16Z</time>
      </trkpt>
      <trkpt lat="45.55664" lon="0.70044">
        <ele>241.90893554688</ele>
        <time>2011-03-06T11:01:21Z</time>
      </trkpt>
      <trkpt lat="45.55642" lon="0.70042">
        <ele>242.87023925781</ele>
        <time>2011-03-06T11:01:29Z</time>
      </trkpt>
      <trkpt lat="45.5564" lon="0.70032">
        <ele>244.79284667969</ele>
        <time>2011-03-06T11:01:33Z</time>
      </trkpt>
      <trkpt lat="45.55636" lon="0.70026">
        <ele>247.19604492188</ele>
        <time>2011-03-06T11:01:36Z</time>
      </trkpt>
      <trkpt lat="45.5563" lon="0.70018">
        <ele>249.59948730469</ele>
        <time>2011-03-06T11:01:40Z</time>
      </trkpt>
      <trkpt lat="45.55598" lon="0.69985">
        <ele>248.63818359375</ele>
        <time>2011-03-06T11:01:52Z</time>
      </trkpt>
      <trkpt lat="45.55567" lon="0.69977">
        <ele>245.75415039062</ele>
        <time>2011-03-06T11:02:02Z</time>
      </trkpt>
      <trkpt lat="45.55534" lon="0.6996">
        <ele>245.75415039062</ele>
        <time>2011-03-06T11:02:10Z</time>
      </trkpt>
      <trkpt lat="45.55524" lon="0.69952">
        <ele>245.75415039062</ele>
        <time>2011-03-06T11:02:13Z</time>
      </trkpt>
      <trkpt lat="45.55528" lon="0.69937">
        <ele>248.15759277344</ele>
        <time>2011-03-06T11:02:17Z</time>
      </trkpt>
      <trkpt lat="45.55544" lon="0.69922">
        <ele>252.4833984375</ele>
        <time>2011-03-06T11:02:23Z</time>
      </trkpt>
      <trkpt lat="45.55544" lon="0.699">
        <ele>251.04138183594</ele>
        <time>2011-03-06T11:02:28Z</time>
      </trkpt>
      <trkpt lat="45.55533" lon="0.69887">
        <ele>250.08020019531</ele>
        <time>2011-03-06T11:02:33Z</time>
      </trkpt>
      <trkpt lat="45.55503" lon="0.69868">
        <ele>251.04138183594</ele>
        <time>2011-03-06T11:02:42Z</time>
      </trkpt>
      <trkpt lat="45.55501" lon="0.69866">
        <ele>251.52209472656</ele>
        <time>2011-03-06T11:02:43Z</time>
      </trkpt>
      <trkpt lat="45.55455" lon="0.69856">
        <ele>251.04138183594</ele>
        <time>2011-03-06T11:02:54Z</time>
      </trkpt>
      <trkpt lat="45.55418" lon="0.69845">
        <ele>252.96398925781</ele>
        <time>2011-03-06T11:03:03Z</time>
      </trkpt>
      <trkpt lat="45.55403" lon="0.69847">
        <ele>253.92541503906</ele>
        <time>2011-03-06T11:03:06Z</time>
      </trkpt>
      <trkpt lat="45.55388" lon="0.69818">
        <ele>260.65454101562</ele>
        <time>2011-03-06T11:03:12Z</time>
      </trkpt>
      <trkpt lat="45.55389" lon="0.69812">
        <ele>261.13525390625</ele>
        <time>2011-03-06T11:03:13Z</time>
      </trkpt>
      <trkpt lat="45.55392" lon="0.69789">
        <ele>261.13525390625</ele>
        <time>2011-03-06T11:03:17Z</time>
      </trkpt>
      <trkpt lat="45.55385" lon="0.6977">
        <ele>264.01928710938</ele>
        <time>2011-03-06T11:03:21Z</time>
      </trkpt>
      <trkpt lat="45.55366" lon="0.69742">
        <ele>267.38391113281</ele>
        <time>2011-03-06T11:03:28Z</time>
      </trkpt>
      <trkpt lat="45.55354" lon="0.69734">
        <ele>268.34509277344</ele>
        <time>2011-03-06T11:03:31Z</time>
      </trkpt>
      <trkpt lat="45.55347" lon="0.69729">
        <ele>268.82580566406</ele>
        <time>2011-03-06T11:03:33Z</time>
      </trkpt>
      <trkpt lat="45.55325" lon="0.69695">
        <ele>271.22912597656</ele>
        <time>2011-03-06T11:03:41Z</time>
      </trkpt>
      <trkpt lat="45.55328" lon="0.6969">
        <ele>269.787109375</ele>
        <time>2011-03-06T11:03:54Z</time>
      </trkpt>
      <trkpt lat="45.55328" lon="0.69689">
        <ele>269.787109375</ele>
        <time>2011-03-06T11:05:00Z</time>
      </trkpt>
      <trkpt lat="45.55328" lon="0.69688">
        <ele>269.787109375</ele>
        <time>2011-03-06T11:06:35Z</time>
      </trkpt>
      <trkpt lat="45.55357" lon="0.6966">
        <ele>269.787109375</ele>
        <time>2011-03-06T11:06:46Z</time>
      </trkpt>
      <trkpt lat="45.55399" lon="0.69627">
        <ele>270.26770019531</ele>
        <time>2011-03-06T11:06:55Z</time>
      </trkpt>
      <trkpt lat="45.55464" lon="0.69576">
        <ele>269.787109375</ele>
        <time>2011-03-06T11:07:08Z</time>
      </trkpt>
      <trkpt lat="45.55469" lon="0.69573">
        <ele>269.787109375</ele>
        <time>2011-03-06T11:07:09Z</time>
      </trkpt>
      <trkpt lat="45.55481" lon="0.69563">
        <ele>268.34509277344</ele>
        <time>2011-03-06T11:07:12Z</time>
      </trkpt>
      <trkpt lat="45.55475" lon="0.69521">
        <ele>269.30651855469</ele>
        <time>2011-03-06T11:07:19Z</time>
      </trkpt>
      <trkpt lat="45.55432" lon="0.69427">
        <ele>269.30651855469</ele>
        <time>2011-03-06T11:07:32Z</time>
      </trkpt>
      <trkpt lat="45.55419" lon="0.69403">
        <ele>269.30651855469</ele>
        <time>2011-03-06T11:07:35Z</time>
      </trkpt>
      <trkpt lat="45.55383" lon="0.69307">
        <ele>268.34509277344</ele>
        <time>2011-03-06T11:07:46Z</time>
      </trkpt>
      <trkpt lat="45.55388" lon="0.69264">
        <ele>265.46130371094</ele>
        <time>2011-03-06T11:07:51Z</time>
      </trkpt>
      <trkpt lat="45.55409" lon="0.6922">
        <ele>262.09655761719</ele>
        <time>2011-03-06T11:07:56Z</time>
      </trkpt>
      <trkpt lat="45.5542" lon="0.6918">
        <ele>261.13525390625</ele>
        <time>2011-03-06T11:08:01Z</time>
      </trkpt>
      <trkpt lat="45.55422" lon="0.69096">
        <ele>264.98059082031</ele>
        <time>2011-03-06T11:08:12Z</time>
      </trkpt>
      <trkpt lat="45.55426" lon="0.69015">
        <ele>268.34509277344</ele>
        <time>2011-03-06T11:08:23Z</time>
      </trkpt>
      <trkpt lat="45.55424" lon="0.69003">
        <ele>268.82580566406</ele>
        <time>2011-03-06T11:08:25Z</time>
      </trkpt>
      <trkpt lat="45.5541" lon="0.68983">
        <ele>265.94189453125</ele>
        <time>2011-03-06T11:08:30Z</time>
      </trkpt>
      <trkpt lat="45.55371" lon="0.68954">
        <ele>263.53857421875</ele>
        <time>2011-03-06T11:08:38Z</time>
      </trkpt>
      <trkpt lat="45.55341" lon="0.68928">
        <ele>263.53857421875</ele>
        <time>2011-03-06T11:08:43Z</time>
      </trkpt>
      <trkpt lat="45.5532" lon="0.68914">
        <ele>263.53857421875</ele>
        <time>2011-03-06T11:08:46Z</time>
      </trkpt>
      <trkpt lat="45.55272" lon="0.68871">
        <ele>263.53857421875</ele>
        <time>2011-03-06T11:08:53Z</time>
      </trkpt>
      <trkpt lat="45.55251" lon="0.68855">
        <ele>264.01928710938</ele>
        <time>2011-03-06T11:08:56Z</time>
      </trkpt>
      <trkpt lat="45.55233" lon="0.68844">
        <ele>264.49987792969</ele>
        <time>2011-03-06T11:08:59Z</time>
      </trkpt>
      <trkpt lat="45.55206" lon="0.68831">
        <ele>262.5771484375</ele>
        <time>2011-03-06T11:09:08Z</time>
      </trkpt>
      <trkpt lat="45.552" lon="0.68826">
        <ele>262.5771484375</ele>
        <time>2011-03-06T11:09:10Z</time>
      </trkpt>
      <trkpt lat="45.55176" lon="0.68808">
        <ele>263.05786132812</ele>
        <time>2011-03-06T11:09:18Z</time>
      </trkpt>
      <trkpt lat="45.5516" lon="0.68792">
        <ele>262.09655761719</ele>
        <time>2011-03-06T11:09:21Z</time>
      </trkpt>
      <trkpt lat="45.55124" lon="0.68757">
        <ele>259.693359375</ele>
        <time>2011-03-06T11:09:27Z</time>
      </trkpt>
      <trkpt lat="45.551" lon="0.68742">
        <ele>259.21264648438</ele>
        <time>2011-03-06T11:09:31Z</time>
      </trkpt>
      <trkpt lat="45.55085" lon="0.68723">
        <ele>256.80932617188</ele>
        <time>2011-03-06T11:09:34Z</time>
      </trkpt>
      <trkpt lat="45.5506" lon="0.68654">
        <ele>253.44470214844</ele>
        <time>2011-03-06T11:09:41Z</time>
      </trkpt>
      <trkpt lat="45.55036" lon="0.68603">
        <ele>250.56079101562</ele>
        <time>2011-03-06T11:09:50Z</time>
      </trkpt>
      <trkpt lat="45.54997" lon="0.68531">
        <ele>247.6767578125</ele>
        <time>2011-03-06T11:10:02Z</time>
      </trkpt>
      <trkpt lat="45.54978" lon="0.68493">
        <ele>245.75415039062</ele>
        <time>2011-03-06T11:10:07Z</time>
      </trkpt>
      <trkpt lat="45.54972" lon="0.68481">
        <ele>244.79284667969</ele>
        <time>2011-03-06T11:10:09Z</time>
      </trkpt>
      <trkpt lat="45.54986" lon="0.68465">
        <ele>243.35083007812</ele>
        <time>2011-03-06T11:10:15Z</time>
      </trkpt>
      <trkpt lat="45.55009" lon="0.68454">
        <ele>242.87023925781</ele>
        <time>2011-03-06T11:10:20Z</time>
      </trkpt>
      <trkpt lat="45.55024" lon="0.68447">
        <ele>243.35083007812</ele>
        <time>2011-03-06T11:10:23Z</time>
      </trkpt>
      <trkpt lat="45.55102" lon="0.68368">
        <ele>245.75415039062</ele>
        <time>2011-03-06T11:10:42Z</time>
      </trkpt>
      <trkpt lat="45.55115" lon="0.68352">
        <ele>245.75415039062</ele>
        <time>2011-03-06T11:10:46Z</time>
      </trkpt>
      <trkpt lat="45.55113" lon="0.68331">
        <ele>246.23486328125</ele>
        <time>2011-03-06T11:10:51Z</time>
      </trkpt>
      <trkpt lat="45.55062" lon="0.6829">
        <ele>247.19604492188</ele>
        <time>2011-03-06T11:11:07Z</time>
      </trkpt>
      <trkpt lat="45.55008" lon="0.68252">
        <ele>247.6767578125</ele>
        <time>2011-03-06T11:11:21Z</time>
      </trkpt>
      <trkpt lat="45.54951" lon="0.6821">
        <ele>245.2734375</ele>
        <time>2011-03-06T11:11:35Z</time>
      </trkpt>
      <trkpt lat="45.54942" lon="0.68227">
        <ele>245.2734375</ele>
        <time>2011-03-06T11:11:39Z</time>
      </trkpt>
      <trkpt lat="45.54933" lon="0.68285">
        <ele>243.35083007812</ele>
        <time>2011-03-06T11:11:46Z</time>
      </trkpt>
      <trkpt lat="45.54912" lon="0.683">
        <ele>241.90893554688</ele>
        <time>2011-03-06T11:11:51Z</time>
      </trkpt>
      <trkpt lat="45.54825" lon="0.68264">
        <ele>238.54431152344</ele>
        <time>2011-03-06T11:12:03Z</time>
      </trkpt>
      <trkpt lat="45.54719" lon="0.68219">
        <ele>229.89233398438</ele>
        <time>2011-03-06T11:12:13Z</time>
      </trkpt>
      <trkpt lat="45.54658" lon="0.68191">
        <ele>228.93115234375</ele>
        <time>2011-03-06T11:12:19Z</time>
      </trkpt>
      <trkpt lat="45.54644" lon="0.6816">
        <ele>230.373046875</ele>
        <time>2011-03-06T11:12:24Z</time>
      </trkpt>
      <trkpt lat="45.54648" lon="0.68144">
        <ele>231.33435058594</ele>
        <time>2011-03-06T11:12:26Z</time>
      </trkpt>
      <trkpt lat="45.54649" lon="0.68126">
        <ele>232.29577636719</ele>
        <time>2011-03-06T11:12:28Z</time>
      </trkpt>
      <trkpt lat="45.54646" lon="0.68081">
        <ele>233.25708007812</ele>
        <time>2011-03-06T11:12:33Z</time>
      </trkpt>
      <trkpt lat="45.54631" lon="0.68055">
        <ele>232.29577636719</ele>
        <time>2011-03-06T11:12:38Z</time>
      </trkpt>
      <trkpt lat="45.54618" lon="0.68033">
        <ele>230.85375976562</ele>
        <time>2011-03-06T11:12:42Z</time>
      </trkpt>
      <trkpt lat="45.54604" lon="0.68005">
        <ele>227.00854492188</ele>
        <time>2011-03-06T11:12:46Z</time>
      </trkpt>
      <trkpt lat="45.54554" lon="0.67959">
        <ele>216.43395996094</ele>
        <time>2011-03-06T11:12:52Z</time>
      </trkpt>
      <trkpt lat="45.545" lon="0.67931">
        <ele>215.47265625</ele>
        <time>2011-03-06T11:12:59Z</time>
      </trkpt>
      <trkpt lat="45.54452" lon="0.67924">
        <ele>217.39538574219</ele>
        <time>2011-03-06T11:13:10Z</time>
      </trkpt>
      <trkpt lat="45.54432" lon="0.6791">
        <ele>222.20178222656</ele>
        <time>2011-03-06T11:13:18Z</time>
      </trkpt>
      <trkpt lat="45.54396" lon="0.67885">
        <ele>225.0859375</ele>
        <time>2011-03-06T11:13:31Z</time>
      </trkpt>
      <trkpt lat="45.54371" lon="0.67859">
        <ele>226.52783203125</ele>
        <time>2011-03-06T11:13:40Z</time>
      </trkpt>
      <trkpt lat="45.54352" lon="0.67832">
        <ele>229.41174316406</ele>
        <time>2011-03-06T11:13:49Z</time>
      </trkpt>
      <trkpt lat="45.54326" lon="0.67807">
        <ele>231.33435058594</ele>
        <time>2011-03-06T11:14:06Z</time>
      </trkpt>
      <trkpt lat="45.54307" lon="0.67785">
        <ele>231.81494140625</ele>
        <time>2011-03-06T11:14:20Z</time>
      </trkpt>
      <trkpt lat="45.543" lon="0.67784">
        <ele>231.81494140625</ele>
        <time>2011-03-06T11:14:25Z</time>
      </trkpt>
      <trkpt lat="45.54251" lon="0.67757">
        <ele>229.89233398438</ele>
        <time>2011-03-06T11:14:43Z</time>
      </trkpt>
      <trkpt lat="45.54205" lon="0.67736">
        <ele>227.9697265625</ele>
        <time>2011-03-06T11:14:56Z</time>
      </trkpt>
      <trkpt lat="45.54166" lon="0.67714">
        <ele>232.29577636719</ele>
        <time>2011-03-06T11:15:07Z</time>
      </trkpt>
      <trkpt lat="45.54153" lon="0.67707">
        <ele>231.33435058594</ele>
        <time>2011-03-06T11:15:11Z</time>
      </trkpt>
      <trkpt lat="45.54095" lon="0.67676">
        <ele>227.9697265625</ele>
        <time>2011-03-06T11:15:27Z</time>
      </trkpt>
      <trkpt lat="45.54009" lon="0.67633">
        <ele>223.16320800781</ele>
        <time>2011-03-06T11:15:47Z</time>
      </trkpt>
      <trkpt lat="45.53951" lon="0.67598">
        <ele>218.83728027344</ele>
        <time>2011-03-06T11:16:01Z</time>
      </trkpt>
      <trkpt lat="45.53918" lon="0.67567">
        <ele>221.72119140625</ele>
        <time>2011-03-06T11:16:14Z</time>
      </trkpt>
      <trkpt lat="45.5391" lon="0.67512">
        <ele>226.04711914062</ele>
        <time>2011-03-06T11:16:26Z</time>
      </trkpt>
      <trkpt lat="45.53897" lon="0.67468">
        <ele>231.81494140625</ele>
        <time>2011-03-06T11:16:38Z</time>
      </trkpt>
      <trkpt lat="45.53872" lon="0.67432">
        <ele>237.58288574219</ele>
        <time>2011-03-06T11:16:53Z</time>
      </trkpt>
      <trkpt lat="45.53858" lon="0.67381">
        <ele>239.98620605469</ele>
        <time>2011-03-06T11:17:08Z</time>
      </trkpt>
      <trkpt lat="45.53855" lon="0.67363">
        <ele>243.35083007812</ele>
        <time>2011-03-06T11:17:14Z</time>
      </trkpt>
      <trkpt lat="45.53865" lon="0.67329">
        <ele>247.19604492188</ele>
        <time>2011-03-06T11:17:29Z</time>
      </trkpt>
      <trkpt lat="45.53866" lon="0.67327">
        <ele>247.19604492188</ele>
        <time>2011-03-06T11:17:30Z</time>
      </trkpt>
      <trkpt lat="45.53875" lon="0.67295">
        <ele>249.59948730469</ele>
        <time>2011-03-06T11:17:43Z</time>
      </trkpt>
      <trkpt lat="45.53863" lon="0.67268">
        <ele>254.40600585938</ele>
        <time>2011-03-06T11:17:55Z</time>
      </trkpt>
      <trkpt lat="45.53834" lon="0.67244">
        <ele>257.2900390625</ele>
        <time>2011-03-06T11:18:12Z</time>
      </trkpt>
      <trkpt lat="45.53825" lon="0.67238">
        <ele>256.32873535156</ele>
        <time>2011-03-06T11:18:16Z</time>
      </trkpt>
      <trkpt lat="45.53773" lon="0.67207">
        <ele>257.2900390625</ele>
        <time>2011-03-06T11:18:33Z</time>
      </trkpt>
      <trkpt lat="45.53731" lon="0.67161">
        <ele>259.21264648438</ele>
        <time>2011-03-06T11:18:51Z</time>
      </trkpt>
      <trkpt lat="45.53701" lon="0.67128">
        <ele>261.61596679688</ele>
        <time>2011-03-06T11:19:03Z</time>
      </trkpt>
      <trkpt lat="45.5364" lon="0.67077">
        <ele>265.46130371094</ele>
        <time>2011-03-06T11:19:22Z</time>
      </trkpt>
      <trkpt lat="45.53598" lon="0.67047">
        <ele>269.30651855469</ele>
        <time>2011-03-06T11:19:35Z</time>
      </trkpt>
      <trkpt lat="45.53579" lon="0.67029">
        <ele>269.30651855469</ele>
        <time>2011-03-06T11:19:46Z</time>
      </trkpt>
      <trkpt lat="45.53576" lon="0.67025">
        <ele>268.82580566406</ele>
        <time>2011-03-06T11:19:49Z</time>
      </trkpt>
      <trkpt lat="45.53569" lon="0.67017">
        <ele>269.30651855469</ele>
        <time>2011-03-06T11:20:04Z</time>
      </trkpt>
      <trkpt lat="45.53549" lon="0.66999">
        <ele>270.26770019531</ele>
        <time>2011-03-06T11:20:48Z</time>
      </trkpt>
      <trkpt lat="45.53501" lon="0.66958">
        <ele>267.38391113281</ele>
        <time>2011-03-06T11:21:03Z</time>
      </trkpt>
      <trkpt lat="45.53444" lon="0.66893">
        <ele>260.17395019531</ele>
        <time>2011-03-06T11:21:13Z</time>
      </trkpt>
      <trkpt lat="45.5343" lon="0.66875">
        <ele>258.25134277344</ele>
        <time>2011-03-06T11:21:15Z</time>
      </trkpt>
      <trkpt lat="45.53332" lon="0.66755">
        <ele>247.6767578125</ele>
        <time>2011-03-06T11:21:27Z</time>
      </trkpt>
      <trkpt lat="45.53252" lon="0.66608">
        <ele>234.69909667969</ele>
        <time>2011-03-06T11:21:38Z</time>
      </trkpt>
      <trkpt lat="45.53238" lon="0.66587">
        <ele>233.73767089844</ele>
        <time>2011-03-06T11:21:40Z</time>
      </trkpt>
      <trkpt lat="45.53217" lon="0.66536">
        <ele>230.85375976562</ele>
        <time>2011-03-06T11:21:45Z</time>
      </trkpt>
      <trkpt lat="45.53213" lon="0.66502">
        <ele>229.41174316406</ele>
        <time>2011-03-06T11:21:49Z</time>
      </trkpt>
      <trkpt lat="45.53214" lon="0.66501">
        <ele>229.89233398438</ele>
        <time>2011-03-06T11:21:56Z</time>
      </trkpt>
      <trkpt lat="45.53204" lon="0.66486">
        <ele>229.41174316406</ele>
        <time>2011-03-06T11:22:01Z</time>
      </trkpt>
      <trkpt lat="45.53187" lon="0.66451">
        <ele>229.41174316406</ele>
        <time>2011-03-06T11:22:08Z</time>
      </trkpt>
      <trkpt lat="45.53178" lon="0.66448">
        <ele>229.89233398438</ele>
        <time>2011-03-06T11:22:12Z</time>
      </trkpt>
      <trkpt lat="45.53171" lon="0.66438">
        <ele>229.41174316406</ele>
        <time>2011-03-06T11:22:15Z</time>
      </trkpt>
      <trkpt lat="45.53144" lon="0.66413">
        <ele>227.48913574219</ele>
        <time>2011-03-06T11:22:24Z</time>
      </trkpt>
      <trkpt lat="45.53135" lon="0.6639">
        <ele>225.56652832031</ele>
        <time>2011-03-06T11:22:29Z</time>
      </trkpt>
      <trkpt lat="45.53133" lon="0.66377">
        <ele>223.16320800781</ele>
        <time>2011-03-06T11:22:33Z</time>
      </trkpt>
      <trkpt lat="45.5312" lon="0.66371">
        <ele>223.16320800781</ele>
        <time>2011-03-06T11:22:38Z</time>
      </trkpt>
      <trkpt lat="45.53115" lon="0.66364">
        <ele>222.20178222656</ele>
        <time>2011-03-06T11:22:49Z</time>
      </trkpt>
      <trkpt lat="45.53115" lon="0.66364">
        <ele>222.68249511719</ele>
        <time>2011-03-06T11:23:14Z</time>
      </trkpt>
    </trkseg>
  </trk>
</gpx>